<?xml version="1.0" encoding="UTF-8" standalone="no" ?>
<gpx xmlns="http://www.topografix.com/GPX/1/1" xmlns:xsi="http://www.w3.org/2001/XMLSchema-instance" xsi:schemaLocation="http://www.topografix.com/GPX/1/1 http://www.topografix.com/GPX/1/1/gpx.xsd" version="1.1" creator="VisuGPX - https://www.visugpx.com">
  <metadata>
    <name>Pot_Thur 60</name>
  </metadata>
  <wpt lat="48.87672" lon="-0.388">
    <ele>204.2</ele>
    <name><![CDATA[WP 1]]></name>
  </wpt>
  <wpt lat="48.87672" lon="-0.388">
    <ele>204.2</ele>
    <name><![CDATA[Départ Arrivee]]></name>
  </wpt>
  <trk>
    <name><![CDATA[Saint-sylvain_55km_final on GPSies.com]]></name>
    <extensions>
      <line xmlns="http://www.topografix.com/GPX/gpx_style/0/2">
        <color>FF00FF</color>
        <width>4</width>
      </line>
    </extensions>
    <trkseg>
      <trkpt lat="49.06011" lon="-0.21825">
        <ele>45</ele>
        <time>2010-01-01T00:00:00Z</time>
      </trkpt>
      <trkpt lat="49.06011" lon="-0.21825">
        <ele>45</ele>
        <time>2010-01-01T00:00:00Z</time>
      </trkpt>
      <trkpt lat="49.06011" lon="-0.21825">
        <ele>45</ele>
        <time>2010-01-01T00:00:00Z</time>
      </trkpt>
      <trkpt lat="49.06011" lon="-0.21825">
        <ele>45</ele>
        <time>2010-01-01T00:00:00Z</time>
      </trkpt>
      <trkpt lat="49.06011" lon="-0.21825">
        <ele>45</ele>
        <time>2010-01-01T00:00:00Z</time>
      </trkpt>
      <trkpt lat="49.05979" lon="-0.21857">
        <ele>45</ele>
        <time>2010-01-01T00:00:10Z</time>
      </trkpt>
      <trkpt lat="49.05959" lon="-0.21893">
        <ele>45</ele>
        <time>2010-01-01T00:00:18Z</time>
      </trkpt>
      <trkpt lat="49.05946" lon="-0.2192">
        <ele>45</ele>
        <time>2010-01-01T00:00:24Z</time>
      </trkpt>
      <trkpt lat="49.05932" lon="-0.21972">
        <ele>46</ele>
        <time>2010-01-01T00:00:34Z</time>
      </trkpt>
      <trkpt lat="49.05887" lon="-0.22104">
        <ele>47</ele>
        <time>2010-01-01T00:01:00Z</time>
      </trkpt>
      <trkpt lat="49.05842" lon="-0.22255">
        <ele>49</ele>
        <time>2010-01-01T00:01:29Z</time>
      </trkpt>
      <trkpt lat="49.05823" lon="-0.22225">
        <ele>49</ele>
        <time>2010-01-01T00:01:36Z</time>
      </trkpt>
      <trkpt lat="49.05814" lon="-0.22258">
        <ele>49</ele>
        <time>2010-01-01T00:01:42Z</time>
      </trkpt>
      <trkpt lat="49.05779" lon="-0.22384">
        <ele>48</ele>
        <time>2010-01-01T00:02:06Z</time>
      </trkpt>
      <trkpt lat="49.05732" lon="-0.22588">
        <ele>51</ele>
        <time>2010-01-01T00:02:44Z</time>
      </trkpt>
      <trkpt lat="49.05676" lon="-0.22776">
        <ele>52</ele>
        <time>2010-01-01T00:03:20Z</time>
      </trkpt>
      <trkpt lat="49.05665" lon="-0.22813">
        <ele>52</ele>
        <time>2010-01-01T00:03:27Z</time>
      </trkpt>
      <trkpt lat="49.05651" lon="-0.22855">
        <ele>53</ele>
        <time>2010-01-01T00:03:35Z</time>
      </trkpt>
      <trkpt lat="49.05541" lon="-0.23062">
        <ele>57</ele>
        <time>2010-01-01T00:04:22Z</time>
      </trkpt>
      <trkpt lat="49.05441" lon="-0.23297">
        <ele>59</ele>
        <time>2010-01-01T00:05:11Z</time>
      </trkpt>
      <trkpt lat="49.05355" lon="-0.23442">
        <ele>61</ele>
        <time>2010-01-01T00:05:45Z</time>
      </trkpt>
      <trkpt lat="49.05335" lon="-0.2348">
        <ele>60</ele>
        <time>2010-01-01T00:05:54Z</time>
      </trkpt>
      <trkpt lat="49.05315" lon="-0.23518">
        <ele>60</ele>
        <time>2010-01-01T00:06:02Z</time>
      </trkpt>
      <trkpt lat="49.05289" lon="-0.23588">
        <ele>60</ele>
        <time>2010-01-01T00:06:16Z</time>
      </trkpt>
      <trkpt lat="49.05243" lon="-0.23704">
        <ele>62</ele>
        <time>2010-01-01T00:06:40Z</time>
      </trkpt>
      <trkpt lat="49.05144" lon="-0.23973">
        <ele>62</ele>
        <time>2010-01-01T00:07:34Z</time>
      </trkpt>
      <trkpt lat="49.05158" lon="-0.23932">
        <ele>62</ele>
        <time>2010-01-01T00:07:42Z</time>
      </trkpt>
      <trkpt lat="49.05098" lon="-0.24084">
        <ele>66</ele>
        <time>2010-01-01T00:08:13Z</time>
      </trkpt>
      <trkpt lat="49.05079" lon="-0.24137">
        <ele>66</ele>
        <time>2010-01-01T00:08:24Z</time>
      </trkpt>
      <trkpt lat="49.0507" lon="-0.24158">
        <ele>67</ele>
        <time>2010-01-01T00:08:28Z</time>
      </trkpt>
      <trkpt lat="49.05048" lon="-0.24189">
        <ele>67</ele>
        <time>2010-01-01T00:08:36Z</time>
      </trkpt>
      <trkpt lat="49.04908" lon="-0.24437">
        <ele>67</ele>
        <time>2010-01-01T00:09:33Z</time>
      </trkpt>
      <trkpt lat="49.04912" lon="-0.24765">
        <ele>74</ele>
        <time>2010-01-01T00:10:31Z</time>
      </trkpt>
      <trkpt lat="49.04903" lon="-0.24921">
        <ele>75</ele>
        <time>2010-01-01T00:10:58Z</time>
      </trkpt>
      <trkpt lat="49.04883" lon="-0.25126">
        <ele>78</ele>
        <time>2010-01-01T00:11:34Z</time>
      </trkpt>
      <trkpt lat="49.04867" lon="-0.25275">
        <ele>80</ele>
        <time>2010-01-01T00:12:01Z</time>
      </trkpt>
      <trkpt lat="49.04849" lon="-0.25424">
        <ele>82</ele>
        <time>2010-01-01T00:12:27Z</time>
      </trkpt>
      <trkpt lat="49.04826" lon="-0.25599">
        <ele>85</ele>
        <time>2010-01-01T00:12:58Z</time>
      </trkpt>
      <trkpt lat="49.0479" lon="-0.25807">
        <ele>89</ele>
        <time>2010-01-01T00:13:36Z</time>
      </trkpt>
      <trkpt lat="49.0476" lon="-0.25959">
        <ele>93</ele>
        <time>2010-01-01T00:14:04Z</time>
      </trkpt>
      <trkpt lat="49.04745" lon="-0.26025">
        <ele>94</ele>
        <time>2010-01-01T00:14:16Z</time>
      </trkpt>
      <trkpt lat="49.04711" lon="-0.26146">
        <ele>99</ele>
        <time>2010-01-01T00:14:39Z</time>
      </trkpt>
      <trkpt lat="49.04701" lon="-0.26191">
        <ele>100</ele>
        <time>2010-01-01T00:14:47Z</time>
      </trkpt>
      <trkpt lat="49.04699" lon="-0.2622">
        <ele>101</ele>
        <time>2010-01-01T00:14:52Z</time>
      </trkpt>
      <trkpt lat="49.04691" lon="-0.26241">
        <ele>102</ele>
        <time>2010-01-01T00:14:57Z</time>
      </trkpt>
      <trkpt lat="49.04683" lon="-0.26281">
        <ele>104</ele>
        <time>2010-01-01T00:15:04Z</time>
      </trkpt>
      <trkpt lat="49.0468" lon="-0.26322">
        <ele>104</ele>
        <time>2010-01-01T00:15:11Z</time>
      </trkpt>
      <trkpt lat="49.04677" lon="-0.26374">
        <ele>105</ele>
        <time>2010-01-01T00:15:20Z</time>
      </trkpt>
      <trkpt lat="49.04653" lon="-0.26432">
        <ele>106</ele>
        <time>2010-01-01T00:15:32Z</time>
      </trkpt>
      <trkpt lat="49.04638" lon="-0.26463">
        <ele>107</ele>
        <time>2010-01-01T00:15:39Z</time>
      </trkpt>
      <trkpt lat="49.04624" lon="-0.26479">
        <ele>109</ele>
        <time>2010-01-01T00:15:44Z</time>
      </trkpt>
      <trkpt lat="49.04599" lon="-0.26507">
        <ele>109</ele>
        <time>2010-01-01T00:15:52Z</time>
      </trkpt>
      <trkpt lat="49.04553" lon="-0.26556">
        <ele>110</ele>
        <time>2010-01-01T00:16:07Z</time>
      </trkpt>
      <trkpt lat="49.04505" lon="-0.26614">
        <ele>113</ele>
        <time>2010-01-01T00:16:23Z</time>
      </trkpt>
      <trkpt lat="49.04467" lon="-0.26665">
        <ele>113</ele>
        <time>2010-01-01T00:16:37Z</time>
      </trkpt>
      <trkpt lat="49.04452" lon="-0.2669">
        <ele>113</ele>
        <time>2010-01-01T00:16:43Z</time>
      </trkpt>
      <trkpt lat="49.04447" lon="-0.26714">
        <ele>113</ele>
        <time>2010-01-01T00:16:47Z</time>
      </trkpt>
      <trkpt lat="49.04441" lon="-0.26731">
        <ele>113</ele>
        <time>2010-01-01T00:16:51Z</time>
      </trkpt>
      <trkpt lat="49.04434" lon="-0.26744">
        <ele>113</ele>
        <time>2010-01-01T00:16:54Z</time>
      </trkpt>
      <trkpt lat="49.0443" lon="-0.26754">
        <ele>113</ele>
        <time>2010-01-01T00:16:56Z</time>
      </trkpt>
      <trkpt lat="49.0442" lon="-0.26777">
        <ele>113</ele>
        <time>2010-01-01T00:17:01Z</time>
      </trkpt>
      <trkpt lat="49.04418" lon="-0.26816">
        <ele>115</ele>
        <time>2010-01-01T00:17:07Z</time>
      </trkpt>
      <trkpt lat="49.04413" lon="-0.26854">
        <ele>115</ele>
        <time>2010-01-01T00:17:14Z</time>
      </trkpt>
      <trkpt lat="49.04408" lon="-0.26909">
        <ele>115</ele>
        <time>2010-01-01T00:17:24Z</time>
      </trkpt>
      <trkpt lat="49.04399" lon="-0.26971">
        <ele>115</ele>
        <time>2010-01-01T00:17:35Z</time>
      </trkpt>
      <trkpt lat="49.04386" lon="-0.27046">
        <ele>114</ele>
        <time>2010-01-01T00:17:49Z</time>
      </trkpt>
      <trkpt lat="49.04371" lon="-0.27128">
        <ele>113</ele>
        <time>2010-01-01T00:18:03Z</time>
      </trkpt>
      <trkpt lat="49.04355" lon="-0.27211">
        <ele>114</ele>
        <time>2010-01-01T00:18:19Z</time>
      </trkpt>
      <trkpt lat="49.04338" lon="-0.27281">
        <ele>118</ele>
        <time>2010-01-01T00:18:32Z</time>
      </trkpt>
      <trkpt lat="49.04314" lon="-0.27368">
        <ele>117</ele>
        <time>2010-01-01T00:18:48Z</time>
      </trkpt>
      <trkpt lat="49.04297" lon="-0.27432">
        <ele>121</ele>
        <time>2010-01-01T00:19:00Z</time>
      </trkpt>
      <trkpt lat="49.04275" lon="-0.27516">
        <ele>124</ele>
        <time>2010-01-01T00:19:16Z</time>
      </trkpt>
      <trkpt lat="49.04252" lon="-0.27611">
        <ele>123</ele>
        <time>2010-01-01T00:19:34Z</time>
      </trkpt>
      <trkpt lat="49.04238" lon="-0.27668">
        <ele>122</ele>
        <time>2010-01-01T00:19:44Z</time>
      </trkpt>
      <trkpt lat="49.04213" lon="-0.27751">
        <ele>124</ele>
        <time>2010-01-01T00:20:00Z</time>
      </trkpt>
      <trkpt lat="49.04189" lon="-0.27811">
        <ele>129</ele>
        <time>2010-01-01T00:20:13Z</time>
      </trkpt>
      <trkpt lat="49.04162" lon="-0.27864">
        <ele>130</ele>
        <time>2010-01-01T00:20:24Z</time>
      </trkpt>
      <trkpt lat="49.04126" lon="-0.27926">
        <ele>130</ele>
        <time>2010-01-01T00:20:39Z</time>
      </trkpt>
      <trkpt lat="49.04095" lon="-0.27983">
        <ele>130</ele>
        <time>2010-01-01T00:20:52Z</time>
      </trkpt>
      <trkpt lat="49.04056" lon="-0.2806">
        <ele>126</ele>
        <time>2010-01-01T00:21:09Z</time>
      </trkpt>
      <trkpt lat="49.04037" lon="-0.28104">
        <ele>123</ele>
        <time>2010-01-01T00:21:18Z</time>
      </trkpt>
      <trkpt lat="49.04036" lon="-0.2812">
        <ele>124</ele>
        <time>2010-01-01T00:21:21Z</time>
      </trkpt>
      <trkpt lat="49.04013" lon="-0.28173">
        <ele>125</ele>
        <time>2010-01-01T00:21:32Z</time>
      </trkpt>
      <trkpt lat="49.0401" lon="-0.2818">
        <ele>125</ele>
        <time>2010-01-01T00:21:33Z</time>
      </trkpt>
      <trkpt lat="49.03997" lon="-0.28258">
        <ele>127</ele>
        <time>2010-01-01T00:21:48Z</time>
      </trkpt>
      <trkpt lat="49.03999" lon="-0.2833">
        <ele>126</ele>
        <time>2010-01-01T00:22:00Z</time>
      </trkpt>
      <trkpt lat="49.04" lon="-0.28421">
        <ele>127</ele>
        <time>2010-01-01T00:22:16Z</time>
      </trkpt>
      <trkpt lat="49.03999" lon="-0.28514">
        <ele>131</ele>
        <time>2010-01-01T00:22:32Z</time>
      </trkpt>
      <trkpt lat="49.03987" lon="-0.28575">
        <ele>130</ele>
        <time>2010-01-01T00:22:44Z</time>
      </trkpt>
      <trkpt lat="49.03985" lon="-0.28582">
        <ele>130</ele>
        <time>2010-01-01T00:22:45Z</time>
      </trkpt>
      <trkpt lat="49.03949" lon="-0.28664">
        <ele>132</ele>
        <time>2010-01-01T00:23:02Z</time>
      </trkpt>
      <trkpt lat="49.03914" lon="-0.28729">
        <ele>130</ele>
        <time>2010-01-01T00:23:17Z</time>
      </trkpt>
      <trkpt lat="49.03886" lon="-0.28796">
        <ele>130</ele>
        <time>2010-01-01T00:23:31Z</time>
      </trkpt>
      <trkpt lat="49.03874" lon="-0.28815">
        <ele>131</ele>
        <time>2010-01-01T00:23:35Z</time>
      </trkpt>
      <trkpt lat="49.0387" lon="-0.28822">
        <ele>131</ele>
        <time>2010-01-01T00:23:37Z</time>
      </trkpt>
      <trkpt lat="49.03832" lon="-0.28927">
        <ele>131</ele>
        <time>2010-01-01T00:23:58Z</time>
      </trkpt>
      <trkpt lat="49.03805" lon="-0.29014">
        <ele>128</ele>
        <time>2010-01-01T00:24:15Z</time>
      </trkpt>
      <trkpt lat="49.03767" lon="-0.2911">
        <ele>125</ele>
        <time>2010-01-01T00:24:35Z</time>
      </trkpt>
      <trkpt lat="49.03764" lon="-0.29117">
        <ele>125</ele>
        <time>2010-01-01T00:24:36Z</time>
      </trkpt>
      <trkpt lat="49.0376" lon="-0.29131">
        <ele>124</ele>
        <time>2010-01-01T00:24:39Z</time>
      </trkpt>
      <trkpt lat="49.03763" lon="-0.29143">
        <ele>124</ele>
        <time>2010-01-01T00:24:41Z</time>
      </trkpt>
      <trkpt lat="49.0379" lon="-0.29161">
        <ele>125</ele>
        <time>2010-01-01T00:24:49Z</time>
      </trkpt>
      <trkpt lat="49.03798" lon="-0.29164">
        <ele>125</ele>
        <time>2010-01-01T00:24:51Z</time>
      </trkpt>
      <trkpt lat="49.03826" lon="-0.29183">
        <ele>125</ele>
        <time>2010-01-01T00:24:59Z</time>
      </trkpt>
      <trkpt lat="49.03838" lon="-0.29181">
        <ele>124</ele>
        <time>2010-01-01T00:25:02Z</time>
      </trkpt>
      <trkpt lat="49.03848" lon="-0.29173">
        <ele>124</ele>
        <time>2010-01-01T00:25:05Z</time>
      </trkpt>
      <trkpt lat="49.03858" lon="-0.29172">
        <ele>124</ele>
        <time>2010-01-01T00:25:08Z</time>
      </trkpt>
      <trkpt lat="49.0391" lon="-0.29205">
        <ele>124</ele>
        <time>2010-01-01T00:25:23Z</time>
      </trkpt>
      <trkpt lat="49.03928" lon="-0.2921">
        <ele>124</ele>
        <time>2010-01-01T00:25:28Z</time>
      </trkpt>
      <trkpt lat="49.03982" lon="-0.29242">
        <ele>125</ele>
        <time>2010-01-01T00:25:43Z</time>
      </trkpt>
      <trkpt lat="49.04042" lon="-0.29276">
        <ele>125</ele>
        <time>2010-01-01T00:26:00Z</time>
      </trkpt>
      <trkpt lat="49.04087" lon="-0.29304">
        <ele>124</ele>
        <time>2010-01-01T00:26:13Z</time>
      </trkpt>
      <trkpt lat="49.04131" lon="-0.2933">
        <ele>123</ele>
        <time>2010-01-01T00:26:26Z</time>
      </trkpt>
      <trkpt lat="49.04174" lon="-0.29353">
        <ele>122</ele>
        <time>2010-01-01T00:26:38Z</time>
      </trkpt>
      <trkpt lat="49.04188" lon="-0.2936">
        <ele>122</ele>
        <time>2010-01-01T00:26:42Z</time>
      </trkpt>
      <trkpt lat="49.04228" lon="-0.29383">
        <ele>121</ele>
        <time>2010-01-01T00:26:53Z</time>
      </trkpt>
      <trkpt lat="49.04232" lon="-0.29385">
        <ele>121</ele>
        <time>2010-01-01T00:26:54Z</time>
      </trkpt>
      <trkpt lat="49.04272" lon="-0.29405">
        <ele>120</ele>
        <time>2010-01-01T00:27:06Z</time>
      </trkpt>
      <trkpt lat="49.04331" lon="-0.29431">
        <ele>118</ele>
        <time>2010-01-01T00:27:22Z</time>
      </trkpt>
      <trkpt lat="49.04379" lon="-0.29456">
        <ele>118</ele>
        <time>2010-01-01T00:27:36Z</time>
      </trkpt>
      <trkpt lat="49.04376" lon="-0.29546">
        <ele>115</ele>
        <time>2010-01-01T00:27:51Z</time>
      </trkpt>
      <trkpt lat="49.04369" lon="-0.29649">
        <ele>114</ele>
        <time>2010-01-01T00:28:10Z</time>
      </trkpt>
      <trkpt lat="49.04363" lon="-0.29756">
        <ele>111</ele>
        <time>2010-01-01T00:28:28Z</time>
      </trkpt>
      <trkpt lat="49.04356" lon="-0.29869">
        <ele>109</ele>
        <time>2010-01-01T00:28:48Z</time>
      </trkpt>
      <trkpt lat="49.0434" lon="-0.29974">
        <ele>109</ele>
        <time>2010-01-01T00:29:07Z</time>
      </trkpt>
      <trkpt lat="49.04318" lon="-0.3007">
        <ele>108</ele>
        <time>2010-01-01T00:29:25Z</time>
      </trkpt>
      <trkpt lat="49.04303" lon="-0.30126">
        <ele>107</ele>
        <time>2010-01-01T00:29:35Z</time>
      </trkpt>
      <trkpt lat="49.04283" lon="-0.30203">
        <ele>107</ele>
        <time>2010-01-01T00:29:50Z</time>
      </trkpt>
      <trkpt lat="49.04262" lon="-0.30287">
        <ele>106</ele>
        <time>2010-01-01T00:30:06Z</time>
      </trkpt>
      <trkpt lat="49.04243" lon="-0.30386">
        <ele>105</ele>
        <time>2010-01-01T00:30:24Z</time>
      </trkpt>
      <trkpt lat="49.04231" lon="-0.30486">
        <ele>105</ele>
        <time>2010-01-01T00:30:41Z</time>
      </trkpt>
      <trkpt lat="49.0422" lon="-0.30567">
        <ele>104</ele>
        <time>2010-01-01T00:30:56Z</time>
      </trkpt>
      <trkpt lat="49.04207" lon="-0.30664">
        <ele>104</ele>
        <time>2010-01-01T00:31:13Z</time>
      </trkpt>
      <trkpt lat="49.04205" lon="-0.30679">
        <ele>104</ele>
        <time>2010-01-01T00:31:16Z</time>
      </trkpt>
      <trkpt lat="49.04206" lon="-0.30695">
        <ele>105</ele>
        <time>2010-01-01T00:31:19Z</time>
      </trkpt>
      <trkpt lat="49.04222" lon="-0.30784">
        <ele>106</ele>
        <time>2010-01-01T00:31:35Z</time>
      </trkpt>
      <trkpt lat="49.04235" lon="-0.30857">
        <ele>105</ele>
        <time>2010-01-01T00:31:48Z</time>
      </trkpt>
      <trkpt lat="49.04257" lon="-0.30967">
        <ele>106</ele>
        <time>2010-01-01T00:32:08Z</time>
      </trkpt>
      <trkpt lat="49.04259" lon="-0.3098">
        <ele>106</ele>
        <time>2010-01-01T00:32:11Z</time>
      </trkpt>
      <trkpt lat="49.04255" lon="-0.30988">
        <ele>106</ele>
        <time>2010-01-01T00:32:12Z</time>
      </trkpt>
      <trkpt lat="49.04226" lon="-0.30993">
        <ele>105</ele>
        <time>2010-01-01T00:32:20Z</time>
      </trkpt>
      <trkpt lat="49.04165" lon="-0.31001">
        <ele>105</ele>
        <time>2010-01-01T00:32:37Z</time>
      </trkpt>
      <trkpt lat="49.04123" lon="-0.31021">
        <ele>105</ele>
        <time>2010-01-01T00:32:48Z</time>
      </trkpt>
      <trkpt lat="49.04106" lon="-0.31035">
        <ele>104</ele>
        <time>2010-01-01T00:32:53Z</time>
      </trkpt>
      <trkpt lat="49.04063" lon="-0.31069">
        <ele>103</ele>
        <time>2010-01-01T00:33:06Z</time>
      </trkpt>
      <trkpt lat="49.04019" lon="-0.31085">
        <ele>102</ele>
        <time>2010-01-01T00:33:18Z</time>
      </trkpt>
      <trkpt lat="49.03993" lon="-0.3108">
        <ele>101</ele>
        <time>2010-01-01T00:33:25Z</time>
      </trkpt>
      <trkpt lat="49.0395" lon="-0.31053">
        <ele>101</ele>
        <time>2010-01-01T00:33:38Z</time>
      </trkpt>
      <trkpt lat="49.03897" lon="-0.31015">
        <ele>100</ele>
        <time>2010-01-01T00:33:53Z</time>
      </trkpt>
      <trkpt lat="49.0383" lon="-0.3097">
        <ele>99</ele>
        <time>2010-01-01T00:34:13Z</time>
      </trkpt>
      <trkpt lat="49.03797" lon="-0.30943">
        <ele>99</ele>
        <time>2010-01-01T00:34:23Z</time>
      </trkpt>
      <trkpt lat="49.0378" lon="-0.30931">
        <ele>99</ele>
        <time>2010-01-01T00:34:28Z</time>
      </trkpt>
      <trkpt lat="49.03741" lon="-0.30891">
        <ele>97</ele>
        <time>2010-01-01T00:34:40Z</time>
      </trkpt>
      <trkpt lat="49.03683" lon="-0.30831">
        <ele>94</ele>
        <time>2010-01-01T00:34:59Z</time>
      </trkpt>
      <trkpt lat="49.03633" lon="-0.30782">
        <ele>91</ele>
        <time>2010-01-01T00:35:15Z</time>
      </trkpt>
      <trkpt lat="49.03557" lon="-0.3071">
        <ele>90</ele>
        <time>2010-01-01T00:35:39Z</time>
      </trkpt>
      <trkpt lat="49.03489" lon="-0.30648">
        <ele>85</ele>
        <time>2010-01-01T00:36:00Z</time>
      </trkpt>
      <trkpt lat="49.03471" lon="-0.30636">
        <ele>82</ele>
        <time>2010-01-01T00:36:05Z</time>
      </trkpt>
      <trkpt lat="49.03432" lon="-0.30606">
        <ele>82</ele>
        <time>2010-01-01T00:36:17Z</time>
      </trkpt>
      <trkpt lat="49.03426" lon="-0.306">
        <ele>82</ele>
        <time>2010-01-01T00:36:19Z</time>
      </trkpt>
      <trkpt lat="49.03409" lon="-0.30597">
        <ele>82</ele>
        <time>2010-01-01T00:36:24Z</time>
      </trkpt>
      <trkpt lat="49.03398" lon="-0.30601">
        <ele>83</ele>
        <time>2010-01-01T00:36:27Z</time>
      </trkpt>
      <trkpt lat="49.03388" lon="-0.30603">
        <ele>84</ele>
        <time>2010-01-01T00:36:29Z</time>
      </trkpt>
      <trkpt lat="49.03383" lon="-0.30603">
        <ele>84</ele>
        <time>2010-01-01T00:36:31Z</time>
      </trkpt>
      <trkpt lat="49.03374" lon="-0.30601">
        <ele>84</ele>
        <time>2010-01-01T00:36:33Z</time>
      </trkpt>
      <trkpt lat="49.03368" lon="-0.30604">
        <ele>85</ele>
        <time>2010-01-01T00:36:35Z</time>
      </trkpt>
      <trkpt lat="49.03363" lon="-0.30615">
        <ele>85</ele>
        <time>2010-01-01T00:36:37Z</time>
      </trkpt>
      <trkpt lat="49.03351" lon="-0.30675">
        <ele>83</ele>
        <time>2010-01-01T00:36:48Z</time>
      </trkpt>
      <trkpt lat="49.03345" lon="-0.30705">
        <ele>82</ele>
        <time>2010-01-01T00:36:53Z</time>
      </trkpt>
      <trkpt lat="49.03349" lon="-0.30719">
        <ele>81</ele>
        <time>2010-01-01T00:36:56Z</time>
      </trkpt>
      <trkpt lat="49.03317" lon="-0.30721">
        <ele>82</ele>
        <time>2010-01-01T00:37:05Z</time>
      </trkpt>
      <trkpt lat="49.03286" lon="-0.30723">
        <ele>83</ele>
        <time>2010-01-01T00:37:13Z</time>
      </trkpt>
      <trkpt lat="49.03231" lon="-0.30712">
        <ele>87</ele>
        <time>2010-01-01T00:37:28Z</time>
      </trkpt>
      <trkpt lat="49.03172" lon="-0.3072">
        <ele>88</ele>
        <time>2010-01-01T00:37:44Z</time>
      </trkpt>
      <trkpt lat="49.03151" lon="-0.30717">
        <ele>88</ele>
        <time>2010-01-01T00:37:49Z</time>
      </trkpt>
      <trkpt lat="49.03134" lon="-0.30717">
        <ele>87</ele>
        <time>2010-01-01T00:37:54Z</time>
      </trkpt>
      <trkpt lat="49.031" lon="-0.30718">
        <ele>87</ele>
        <time>2010-01-01T00:38:03Z</time>
      </trkpt>
      <trkpt lat="49.03088" lon="-0.30708">
        <ele>87</ele>
        <time>2010-01-01T00:38:07Z</time>
      </trkpt>
      <trkpt lat="49.03084" lon="-0.30697">
        <ele>87</ele>
        <time>2010-01-01T00:38:09Z</time>
      </trkpt>
      <trkpt lat="49.03079" lon="-0.30672">
        <ele>90</ele>
        <time>2010-01-01T00:38:13Z</time>
      </trkpt>
      <trkpt lat="49.03074" lon="-0.30635">
        <ele>92</ele>
        <time>2010-01-01T00:38:20Z</time>
      </trkpt>
      <trkpt lat="49.03059" lon="-0.30581">
        <ele>95</ele>
        <time>2010-01-01T00:38:30Z</time>
      </trkpt>
      <trkpt lat="49.03052" lon="-0.30553">
        <ele>97</ele>
        <time>2010-01-01T00:38:36Z</time>
      </trkpt>
      <trkpt lat="49.03037" lon="-0.30453">
        <ele>97</ele>
        <time>2010-01-01T00:38:53Z</time>
      </trkpt>
      <trkpt lat="49.03018" lon="-0.30453">
        <ele>96</ele>
        <time>2010-01-01T00:38:59Z</time>
      </trkpt>
      <trkpt lat="49.02998" lon="-0.3046">
        <ele>94</ele>
        <time>2010-01-01T00:39:04Z</time>
      </trkpt>
      <trkpt lat="49.02964" lon="-0.3042">
        <ele>88</ele>
        <time>2010-01-01T00:39:15Z</time>
      </trkpt>
      <trkpt lat="49.0295" lon="-0.304">
        <ele>87</ele>
        <time>2010-01-01T00:39:21Z</time>
      </trkpt>
      <trkpt lat="49.02932" lon="-0.30382">
        <ele>84</ele>
        <time>2010-01-01T00:39:26Z</time>
      </trkpt>
      <trkpt lat="49.02894" lon="-0.30377">
        <ele>78</ele>
        <time>2010-01-01T00:39:36Z</time>
      </trkpt>
      <trkpt lat="49.02887" lon="-0.30375">
        <ele>78</ele>
        <time>2010-01-01T00:39:38Z</time>
      </trkpt>
      <trkpt lat="49.0287" lon="-0.30367">
        <ele>79</ele>
        <time>2010-01-01T00:39:43Z</time>
      </trkpt>
      <trkpt lat="49.02824" lon="-0.30369">
        <ele>76</ele>
        <time>2010-01-01T00:39:55Z</time>
      </trkpt>
      <trkpt lat="49.02758" lon="-0.30377">
        <ele>77</ele>
        <time>2010-01-01T00:40:13Z</time>
      </trkpt>
      <trkpt lat="49.0269" lon="-0.30392">
        <ele>76</ele>
        <time>2010-01-01T00:40:31Z</time>
      </trkpt>
      <trkpt lat="49.02673" lon="-0.30393">
        <ele>75</ele>
        <time>2010-01-01T00:40:36Z</time>
      </trkpt>
      <trkpt lat="49.02659" lon="-0.30391">
        <ele>74</ele>
        <time>2010-01-01T00:40:40Z</time>
      </trkpt>
      <trkpt lat="49.02655" lon="-0.30385">
        <ele>74</ele>
        <time>2010-01-01T00:40:41Z</time>
      </trkpt>
      <trkpt lat="49.02652" lon="-0.30364">
        <ele>75</ele>
        <time>2010-01-01T00:40:45Z</time>
      </trkpt>
      <trkpt lat="49.02638" lon="-0.30352">
        <ele>75</ele>
        <time>2010-01-01T00:40:49Z</time>
      </trkpt>
      <trkpt lat="49.02625" lon="-0.30353">
        <ele>76</ele>
        <time>2010-01-01T00:40:53Z</time>
      </trkpt>
      <trkpt lat="49.02612" lon="-0.30354">
        <ele>78</ele>
        <time>2010-01-01T00:40:56Z</time>
      </trkpt>
      <trkpt lat="49.02609" lon="-0.30355">
        <ele>78</ele>
        <time>2010-01-01T00:40:57Z</time>
      </trkpt>
      <trkpt lat="49.02606" lon="-0.30351">
        <ele>79</ele>
        <time>2010-01-01T00:40:58Z</time>
      </trkpt>
      <trkpt lat="49.02597" lon="-0.30353">
        <ele>82</ele>
        <time>2010-01-01T00:41:00Z</time>
      </trkpt>
      <trkpt lat="49.02584" lon="-0.3036">
        <ele>86</ele>
        <time>2010-01-01T00:41:04Z</time>
      </trkpt>
      <trkpt lat="49.02567" lon="-0.30368">
        <ele>93</ele>
        <time>2010-01-01T00:41:09Z</time>
      </trkpt>
      <trkpt lat="49.02565" lon="-0.30395">
        <ele>95</ele>
        <time>2010-01-01T00:41:13Z</time>
      </trkpt>
      <trkpt lat="49.02527" lon="-0.30495">
        <ele>91</ele>
        <time>2010-01-01T00:41:34Z</time>
      </trkpt>
      <trkpt lat="49.02386" lon="-0.30699">
        <ele>97</ele>
        <time>2010-01-01T00:42:26Z</time>
      </trkpt>
      <trkpt lat="49.02322" lon="-0.30801">
        <ele>92</ele>
        <time>2010-01-01T00:42:50Z</time>
      </trkpt>
      <trkpt lat="49.02237" lon="-0.30908">
        <ele>89</ele>
        <time>2010-01-01T00:43:20Z</time>
      </trkpt>
      <trkpt lat="49.02051" lon="-0.30957">
        <ele>96</ele>
        <time>2010-01-01T00:44:10Z</time>
      </trkpt>
      <trkpt lat="49.01853" lon="-0.30963">
        <ele>86</ele>
        <time>2010-01-01T00:45:03Z</time>
      </trkpt>
      <trkpt lat="49.01837" lon="-0.30939">
        <ele>88</ele>
        <time>2010-01-01T00:45:09Z</time>
      </trkpt>
      <trkpt lat="49.01803" lon="-0.30904">
        <ele>88</ele>
        <time>2010-01-01T00:45:20Z</time>
      </trkpt>
      <trkpt lat="49.01758" lon="-0.30885">
        <ele>87</ele>
        <time>2010-01-01T00:45:32Z</time>
      </trkpt>
      <trkpt lat="49.01738" lon="-0.30891">
        <ele>86</ele>
        <time>2010-01-01T00:45:38Z</time>
      </trkpt>
      <trkpt lat="49.01732" lon="-0.30908">
        <ele>84</ele>
        <time>2010-01-01T00:45:41Z</time>
      </trkpt>
      <trkpt lat="49.01716" lon="-0.30914">
        <ele>83</ele>
        <time>2010-01-01T00:45:45Z</time>
      </trkpt>
      <trkpt lat="49.01683" lon="-0.30919">
        <ele>82</ele>
        <time>2010-01-01T00:45:54Z</time>
      </trkpt>
      <trkpt lat="49.01654" lon="-0.30927">
        <ele>79</ele>
        <time>2010-01-01T00:46:02Z</time>
      </trkpt>
      <trkpt lat="49.01636" lon="-0.30932">
        <ele>79</ele>
        <time>2010-01-01T00:46:07Z</time>
      </trkpt>
      <trkpt lat="49.01595" lon="-0.30942">
        <ele>79</ele>
        <time>2010-01-01T00:46:18Z</time>
      </trkpt>
      <trkpt lat="49.0154" lon="-0.30959">
        <ele>80</ele>
        <time>2010-01-01T00:46:33Z</time>
      </trkpt>
      <trkpt lat="49.01486" lon="-0.30976">
        <ele>81</ele>
        <time>2010-01-01T00:46:48Z</time>
      </trkpt>
      <trkpt lat="49.01434" lon="-0.30994">
        <ele>80</ele>
        <time>2010-01-01T00:47:02Z</time>
      </trkpt>
      <trkpt lat="49.014" lon="-0.31004">
        <ele>83</ele>
        <time>2010-01-01T00:47:11Z</time>
      </trkpt>
      <trkpt lat="49.01387" lon="-0.3101">
        <ele>84</ele>
        <time>2010-01-01T00:47:15Z</time>
      </trkpt>
      <trkpt lat="49.01383" lon="-0.31011">
        <ele>84</ele>
        <time>2010-01-01T00:47:16Z</time>
      </trkpt>
      <trkpt lat="49.01381" lon="-0.31011">
        <ele>84</ele>
        <time>2010-01-01T00:47:17Z</time>
      </trkpt>
      <trkpt lat="49.01383" lon="-0.31142">
        <ele>80</ele>
        <time>2010-01-01T00:47:40Z</time>
      </trkpt>
      <trkpt lat="49.01388" lon="-0.31212">
        <ele>81</ele>
        <time>2010-01-01T00:47:52Z</time>
      </trkpt>
      <trkpt lat="49.01396" lon="-0.3127">
        <ele>81</ele>
        <time>2010-01-01T00:48:02Z</time>
      </trkpt>
      <trkpt lat="49.01421" lon="-0.31323">
        <ele>82</ele>
        <time>2010-01-01T00:48:14Z</time>
      </trkpt>
      <trkpt lat="49.01446" lon="-0.31399">
        <ele>89</ele>
        <time>2010-01-01T00:48:29Z</time>
      </trkpt>
      <trkpt lat="49.0147" lon="-0.3146">
        <ele>94</ele>
        <time>2010-01-01T00:48:41Z</time>
      </trkpt>
      <trkpt lat="49.0148" lon="-0.31541">
        <ele>98</ele>
        <time>2010-01-01T00:48:55Z</time>
      </trkpt>
      <trkpt lat="49.01487" lon="-0.31602">
        <ele>101</ele>
        <time>2010-01-01T00:49:06Z</time>
      </trkpt>
      <trkpt lat="49.01493" lon="-0.31668">
        <ele>102</ele>
        <time>2010-01-01T00:49:18Z</time>
      </trkpt>
      <trkpt lat="49.01499" lon="-0.31719">
        <ele>106</ele>
        <time>2010-01-01T00:49:27Z</time>
      </trkpt>
      <trkpt lat="49.01511" lon="-0.31772">
        <ele>111</ele>
        <time>2010-01-01T00:49:37Z</time>
      </trkpt>
      <trkpt lat="49.01515" lon="-0.31818">
        <ele>114</ele>
        <time>2010-01-01T00:49:45Z</time>
      </trkpt>
      <trkpt lat="49.0152" lon="-0.31865">
        <ele>116</ele>
        <time>2010-01-01T00:49:53Z</time>
      </trkpt>
      <trkpt lat="49.01525" lon="-0.31908">
        <ele>119</ele>
        <time>2010-01-01T00:50:01Z</time>
      </trkpt>
      <trkpt lat="49.01528" lon="-0.31952">
        <ele>123</ele>
        <time>2010-01-01T00:50:09Z</time>
      </trkpt>
      <trkpt lat="49.0153" lon="-0.31985">
        <ele>126</ele>
        <time>2010-01-01T00:50:14Z</time>
      </trkpt>
      <trkpt lat="49.01534" lon="-0.3202">
        <ele>128</ele>
        <time>2010-01-01T00:50:21Z</time>
      </trkpt>
      <trkpt lat="49.01536" lon="-0.32057">
        <ele>128</ele>
        <time>2010-01-01T00:50:27Z</time>
      </trkpt>
      <trkpt lat="49.0154" lon="-0.32092">
        <ele>130</ele>
        <time>2010-01-01T00:50:33Z</time>
      </trkpt>
      <trkpt lat="49.01546" lon="-0.32133">
        <ele>132</ele>
        <time>2010-01-01T00:50:41Z</time>
      </trkpt>
      <trkpt lat="49.01544" lon="-0.32172">
        <ele>133</ele>
        <time>2010-01-01T00:50:48Z</time>
      </trkpt>
      <trkpt lat="49.01535" lon="-0.32194">
        <ele>134</ele>
        <time>2010-01-01T00:50:52Z</time>
      </trkpt>
      <trkpt lat="49.01512" lon="-0.32221">
        <ele>134</ele>
        <time>2010-01-01T00:51:00Z</time>
      </trkpt>
      <trkpt lat="49.01502" lon="-0.32233">
        <ele>134</ele>
        <time>2010-01-01T00:51:03Z</time>
      </trkpt>
      <trkpt lat="49.01491" lon="-0.32273">
        <ele>135</ele>
        <time>2010-01-01T00:51:11Z</time>
      </trkpt>
      <trkpt lat="49.01477" lon="-0.32298">
        <ele>135</ele>
        <time>2010-01-01T00:51:17Z</time>
      </trkpt>
      <trkpt lat="49.01455" lon="-0.32309">
        <ele>133</ele>
        <time>2010-01-01T00:51:23Z</time>
      </trkpt>
      <trkpt lat="49.01435" lon="-0.32334">
        <ele>133</ele>
        <time>2010-01-01T00:51:30Z</time>
      </trkpt>
      <trkpt lat="49.01433" lon="-0.32365">
        <ele>135</ele>
        <time>2010-01-01T00:51:35Z</time>
      </trkpt>
      <trkpt lat="49.01429" lon="-0.32416">
        <ele>136</ele>
        <time>2010-01-01T00:51:44Z</time>
      </trkpt>
      <trkpt lat="49.01427" lon="-0.3245">
        <ele>137</ele>
        <time>2010-01-01T00:51:50Z</time>
      </trkpt>
      <trkpt lat="49.01428" lon="-0.32453">
        <ele>137</ele>
        <time>2010-01-01T00:51:51Z</time>
      </trkpt>
      <trkpt lat="49.01432" lon="-0.32455">
        <ele>137</ele>
        <time>2010-01-01T00:51:52Z</time>
      </trkpt>
      <trkpt lat="49.01454" lon="-0.32456">
        <ele>137</ele>
        <time>2010-01-01T00:51:58Z</time>
      </trkpt>
      <trkpt lat="49.01487" lon="-0.32474">
        <ele>138</ele>
        <time>2010-01-01T00:52:07Z</time>
      </trkpt>
      <trkpt lat="49.01525" lon="-0.32494">
        <ele>139</ele>
        <time>2010-01-01T00:52:18Z</time>
      </trkpt>
      <trkpt lat="49.01577" lon="-0.32523">
        <ele>139</ele>
        <time>2010-01-01T00:52:33Z</time>
      </trkpt>
      <trkpt lat="49.01632" lon="-0.32554">
        <ele>138</ele>
        <time>2010-01-01T00:52:48Z</time>
      </trkpt>
      <trkpt lat="49.01685" lon="-0.32579">
        <ele>137</ele>
        <time>2010-01-01T00:53:03Z</time>
      </trkpt>
      <trkpt lat="49.01745" lon="-0.32614">
        <ele>136</ele>
        <time>2010-01-01T00:53:20Z</time>
      </trkpt>
      <trkpt lat="49.01839" lon="-0.32664">
        <ele>136</ele>
        <time>2010-01-01T00:53:47Z</time>
      </trkpt>
      <trkpt lat="49.01845" lon="-0.32668">
        <ele>135</ele>
        <time>2010-01-01T00:53:48Z</time>
      </trkpt>
      <trkpt lat="49.01856" lon="-0.32677">
        <ele>135</ele>
        <time>2010-01-01T00:53:52Z</time>
      </trkpt>
      <trkpt lat="49.01861" lon="-0.32683">
        <ele>135</ele>
        <time>2010-01-01T00:53:54Z</time>
      </trkpt>
      <trkpt lat="49.01869" lon="-0.32698">
        <ele>134</ele>
        <time>2010-01-01T00:53:57Z</time>
      </trkpt>
      <trkpt lat="49.01893" lon="-0.32787">
        <ele>133</ele>
        <time>2010-01-01T00:54:14Z</time>
      </trkpt>
      <trkpt lat="49.01923" lon="-0.32896">
        <ele>133</ele>
        <time>2010-01-01T00:54:34Z</time>
      </trkpt>
      <trkpt lat="49.01956" lon="-0.33016">
        <ele>130</ele>
        <time>2010-01-01T00:54:57Z</time>
      </trkpt>
      <trkpt lat="49.01992" lon="-0.33139">
        <ele>130</ele>
        <time>2010-01-01T00:55:21Z</time>
      </trkpt>
      <trkpt lat="49.02015" lon="-0.3322">
        <ele>128</ele>
        <time>2010-01-01T00:55:36Z</time>
      </trkpt>
      <trkpt lat="49.02021" lon="-0.33241">
        <ele>128</ele>
        <time>2010-01-01T00:55:40Z</time>
      </trkpt>
      <trkpt lat="49.02054" lon="-0.33291">
        <ele>123</ele>
        <time>2010-01-01T00:55:53Z</time>
      </trkpt>
      <trkpt lat="49.02071" lon="-0.33315">
        <ele>122</ele>
        <time>2010-01-01T00:55:59Z</time>
      </trkpt>
      <trkpt lat="49.02076" lon="-0.33323">
        <ele>121</ele>
        <time>2010-01-01T00:56:01Z</time>
      </trkpt>
      <trkpt lat="49.0208" lon="-0.33408">
        <ele>122</ele>
        <time>2010-01-01T00:56:16Z</time>
      </trkpt>
      <trkpt lat="49.02094" lon="-0.33528">
        <ele>120</ele>
        <time>2010-01-01T00:56:37Z</time>
      </trkpt>
      <trkpt lat="49.02124" lon="-0.33581">
        <ele>118</ele>
        <time>2010-01-01T00:56:49Z</time>
      </trkpt>
      <trkpt lat="49.02158" lon="-0.33646">
        <ele>120</ele>
        <time>2010-01-01T00:57:04Z</time>
      </trkpt>
      <trkpt lat="49.02192" lon="-0.33692">
        <ele>123</ele>
        <time>2010-01-01T00:57:16Z</time>
      </trkpt>
      <trkpt lat="49.02203" lon="-0.33713">
        <ele>124</ele>
        <time>2010-01-01T00:57:21Z</time>
      </trkpt>
      <trkpt lat="49.02231" lon="-0.33761">
        <ele>127</ele>
        <time>2010-01-01T00:57:32Z</time>
      </trkpt>
      <trkpt lat="49.02266" lon="-0.33827">
        <ele>128</ele>
        <time>2010-01-01T00:57:47Z</time>
      </trkpt>
      <trkpt lat="49.02302" lon="-0.33894">
        <ele>127</ele>
        <time>2010-01-01T00:58:02Z</time>
      </trkpt>
      <trkpt lat="49.02334" lon="-0.33953">
        <ele>129</ele>
        <time>2010-01-01T00:58:15Z</time>
      </trkpt>
      <trkpt lat="49.02344" lon="-0.33974">
        <ele>130</ele>
        <time>2010-01-01T00:58:20Z</time>
      </trkpt>
      <trkpt lat="49.02361" lon="-0.34005">
        <ele>130</ele>
        <time>2010-01-01T00:58:27Z</time>
      </trkpt>
      <trkpt lat="49.02388" lon="-0.34065">
        <ele>131</ele>
        <time>2010-01-01T00:58:40Z</time>
      </trkpt>
      <trkpt lat="49.02424" lon="-0.34147">
        <ele>128</ele>
        <time>2010-01-01T00:58:57Z</time>
      </trkpt>
      <trkpt lat="49.02449" lon="-0.34208">
        <ele>126</ele>
        <time>2010-01-01T00:59:10Z</time>
      </trkpt>
      <trkpt lat="49.02462" lon="-0.34244">
        <ele>123</ele>
        <time>2010-01-01T00:59:17Z</time>
      </trkpt>
      <trkpt lat="49.02491" lon="-0.34322">
        <ele>120</ele>
        <time>2010-01-01T00:59:33Z</time>
      </trkpt>
      <trkpt lat="49.02508" lon="-0.34363">
        <ele>118</ele>
        <time>2010-01-01T00:59:41Z</time>
      </trkpt>
      <trkpt lat="49.02511" lon="-0.34366">
        <ele>117</ele>
        <time>2010-01-01T00:59:42Z</time>
      </trkpt>
      <trkpt lat="49.02531" lon="-0.34351">
        <ele>116</ele>
        <time>2010-01-01T00:59:48Z</time>
      </trkpt>
      <trkpt lat="49.02569" lon="-0.3431">
        <ele>115</ele>
        <time>2010-01-01T01:00:00Z</time>
      </trkpt>
      <trkpt lat="49.02613" lon="-0.34263">
        <ele>115</ele>
        <time>2010-01-01T01:00:15Z</time>
      </trkpt>
      <trkpt lat="49.02672" lon="-0.34204">
        <ele>117</ele>
        <time>2010-01-01T01:00:34Z</time>
      </trkpt>
      <trkpt lat="49.02767" lon="-0.34131">
        <ele>121</ele>
        <time>2010-01-01T01:01:02Z</time>
      </trkpt>
      <trkpt lat="49.02809" lon="-0.34096">
        <ele>117</ele>
        <time>2010-01-01T01:01:15Z</time>
      </trkpt>
      <trkpt lat="49.02872" lon="-0.34038">
        <ele>117</ele>
        <time>2010-01-01T01:01:34Z</time>
      </trkpt>
      <trkpt lat="49.03009" lon="-0.33971">
        <ele>114</ele>
        <time>2010-01-01T01:02:13Z</time>
      </trkpt>
      <trkpt lat="49.03021" lon="-0.33937">
        <ele>113</ele>
        <time>2010-01-01T01:02:19Z</time>
      </trkpt>
      <trkpt lat="49.03077" lon="-0.33906">
        <ele>116</ele>
        <time>2010-01-01T01:02:35Z</time>
      </trkpt>
      <trkpt lat="49.03094" lon="-0.33893">
        <ele>115</ele>
        <time>2010-01-01T01:02:40Z</time>
      </trkpt>
      <trkpt lat="49.03138" lon="-0.33802">
        <ele>107</ele>
        <time>2010-01-01T01:03:00Z</time>
      </trkpt>
      <trkpt lat="49.0317" lon="-0.33724">
        <ele>107</ele>
        <time>2010-01-01T01:03:16Z</time>
      </trkpt>
      <trkpt lat="49.03288" lon="-0.33632">
        <ele>103</ele>
        <time>2010-01-01T01:03:52Z</time>
      </trkpt>
      <trkpt lat="49.03312" lon="-0.33402">
        <ele>104</ele>
        <time>2010-01-01T01:04:32Z</time>
      </trkpt>
      <trkpt lat="49.03345" lon="-0.33367">
        <ele>104</ele>
        <time>2010-01-01T01:04:43Z</time>
      </trkpt>
      <trkpt lat="49.03374" lon="-0.33337">
        <ele>103</ele>
        <time>2010-01-01T01:04:52Z</time>
      </trkpt>
      <trkpt lat="49.03619" lon="-0.33272">
        <ele>94</ele>
        <time>2010-01-01T01:05:59Z</time>
      </trkpt>
      <trkpt lat="49.0375" lon="-0.33225">
        <ele>90</ele>
        <time>2010-01-01T01:06:35Z</time>
      </trkpt>
      <trkpt lat="49.03834" lon="-0.33126">
        <ele>87</ele>
        <time>2010-01-01T01:07:03Z</time>
      </trkpt>
      <trkpt lat="49.03877" lon="-0.33103">
        <ele>82</ele>
        <time>2010-01-01T01:07:15Z</time>
      </trkpt>
      <trkpt lat="49.03929" lon="-0.3306">
        <ele>81</ele>
        <time>2010-01-01T01:07:31Z</time>
      </trkpt>
      <trkpt lat="49.04019" lon="-0.33016">
        <ele>79</ele>
        <time>2010-01-01T01:07:56Z</time>
      </trkpt>
      <trkpt lat="49.04086" lon="-0.32968">
        <ele>79</ele>
        <time>2010-01-01T01:08:16Z</time>
      </trkpt>
      <trkpt lat="49.04141" lon="-0.32905">
        <ele>74</ele>
        <time>2010-01-01T01:08:34Z</time>
      </trkpt>
      <trkpt lat="49.04208" lon="-0.32809">
        <ele>68</ele>
        <time>2010-01-01T01:08:59Z</time>
      </trkpt>
      <trkpt lat="49.04281" lon="-0.32753">
        <ele>66</ele>
        <time>2010-01-01T01:09:21Z</time>
      </trkpt>
      <trkpt lat="49.04291" lon="-0.32747">
        <ele>65</ele>
        <time>2010-01-01T01:09:23Z</time>
      </trkpt>
      <trkpt lat="49.04353" lon="-0.32733">
        <ele>58</ele>
        <time>2010-01-01T01:09:40Z</time>
      </trkpt>
      <trkpt lat="49.04374" lon="-0.32737">
        <ele>58</ele>
        <time>2010-01-01T01:09:46Z</time>
      </trkpt>
      <trkpt lat="49.04438" lon="-0.32764">
        <ele>58</ele>
        <time>2010-01-01T01:10:04Z</time>
      </trkpt>
      <trkpt lat="49.04447" lon="-0.32766">
        <ele>58</ele>
        <time>2010-01-01T01:10:06Z</time>
      </trkpt>
      <trkpt lat="49.04482" lon="-0.32763">
        <ele>57</ele>
        <time>2010-01-01T01:10:15Z</time>
      </trkpt>
      <trkpt lat="49.04554" lon="-0.32721">
        <ele>57</ele>
        <time>2010-01-01T01:10:36Z</time>
      </trkpt>
      <trkpt lat="49.04602" lon="-0.32691">
        <ele>57</ele>
        <time>2010-01-01T01:10:50Z</time>
      </trkpt>
      <trkpt lat="49.04609" lon="-0.32688">
        <ele>58</ele>
        <time>2010-01-01T01:10:52Z</time>
      </trkpt>
      <trkpt lat="49.04617" lon="-0.32703">
        <ele>59</ele>
        <time>2010-01-01T01:10:55Z</time>
      </trkpt>
      <trkpt lat="49.04642" lon="-0.3282">
        <ele>62</ele>
        <time>2010-01-01T01:11:17Z</time>
      </trkpt>
      <trkpt lat="49.0468" lon="-0.32983">
        <ele>69</ele>
        <time>2010-01-01T01:11:47Z</time>
      </trkpt>
      <trkpt lat="49.04684" lon="-0.33015">
        <ele>68</ele>
        <time>2010-01-01T01:11:53Z</time>
      </trkpt>
      <trkpt lat="49.04694" lon="-0.33078">
        <ele>69</ele>
        <time>2010-01-01T01:12:04Z</time>
      </trkpt>
      <trkpt lat="49.047" lon="-0.33167">
        <ele>66</ele>
        <time>2010-01-01T01:12:20Z</time>
      </trkpt>
      <trkpt lat="49.04714" lon="-0.33262">
        <ele>62</ele>
        <time>2010-01-01T01:12:37Z</time>
      </trkpt>
      <trkpt lat="49.04737" lon="-0.33353">
        <ele>58</ele>
        <time>2010-01-01T01:12:54Z</time>
      </trkpt>
      <trkpt lat="49.04744" lon="-0.33376">
        <ele>58</ele>
        <time>2010-01-01T01:12:58Z</time>
      </trkpt>
      <trkpt lat="49.04792" lon="-0.33477">
        <ele>56</ele>
        <time>2010-01-01T01:13:20Z</time>
      </trkpt>
      <trkpt lat="49.04849" lon="-0.33562">
        <ele>54</ele>
        <time>2010-01-01T01:13:41Z</time>
      </trkpt>
      <trkpt lat="49.04911" lon="-0.3365">
        <ele>57</ele>
        <time>2010-01-01T01:14:04Z</time>
      </trkpt>
      <trkpt lat="49.04962" lon="-0.33725">
        <ele>56</ele>
        <time>2010-01-01T01:14:23Z</time>
      </trkpt>
      <trkpt lat="49.05022" lon="-0.338">
        <ele>57</ele>
        <time>2010-01-01T01:14:43Z</time>
      </trkpt>
      <trkpt lat="49.05063" lon="-0.33893">
        <ele>58</ele>
        <time>2010-01-01T01:15:03Z</time>
      </trkpt>
      <trkpt lat="49.05088" lon="-0.34001">
        <ele>55</ele>
        <time>2010-01-01T01:15:23Z</time>
      </trkpt>
      <trkpt lat="49.051" lon="-0.34093">
        <ele>55</ele>
        <time>2010-01-01T01:15:40Z</time>
      </trkpt>
      <trkpt lat="49.05099" lon="-0.34198">
        <ele>54</ele>
        <time>2010-01-01T01:15:58Z</time>
      </trkpt>
      <trkpt lat="49.05088" lon="-0.3433">
        <ele>51</ele>
        <time>2010-01-01T01:16:21Z</time>
      </trkpt>
      <trkpt lat="49.05072" lon="-0.34398">
        <ele>50</ele>
        <time>2010-01-01T01:16:34Z</time>
      </trkpt>
      <trkpt lat="49.05066" lon="-0.34419">
        <ele>49</ele>
        <time>2010-01-01T01:16:38Z</time>
      </trkpt>
      <trkpt lat="49.05064" lon="-0.34439">
        <ele>48</ele>
        <time>2010-01-01T01:16:41Z</time>
      </trkpt>
      <trkpt lat="49.05067" lon="-0.34457">
        <ele>48</ele>
        <time>2010-01-01T01:16:45Z</time>
      </trkpt>
      <trkpt lat="49.05087" lon="-0.34487">
        <ele>48</ele>
        <time>2010-01-01T01:16:52Z</time>
      </trkpt>
      <trkpt lat="49.0511" lon="-0.34519">
        <ele>48</ele>
        <time>2010-01-01T01:17:00Z</time>
      </trkpt>
      <trkpt lat="49.05155" lon="-0.34511">
        <ele>55</ele>
        <time>2010-01-01T01:17:12Z</time>
      </trkpt>
      <trkpt lat="49.05176" lon="-0.3451">
        <ele>56</ele>
        <time>2010-01-01T01:17:18Z</time>
      </trkpt>
      <trkpt lat="49.05193" lon="-0.34507">
        <ele>57</ele>
        <time>2010-01-01T01:17:22Z</time>
      </trkpt>
      <trkpt lat="49.05206" lon="-0.34497">
        <ele>59</ele>
        <time>2010-01-01T01:17:27Z</time>
      </trkpt>
      <trkpt lat="49.05221" lon="-0.34477">
        <ele>62</ele>
        <time>2010-01-01T01:17:32Z</time>
      </trkpt>
      <trkpt lat="49.05223" lon="-0.34475">
        <ele>62</ele>
        <time>2010-01-01T01:17:32Z</time>
      </trkpt>
      <trkpt lat="49.05228" lon="-0.34451">
        <ele>65</ele>
        <time>2010-01-01T01:17:37Z</time>
      </trkpt>
      <trkpt lat="49.05232" lon="-0.3443">
        <ele>68</ele>
        <time>2010-01-01T01:17:41Z</time>
      </trkpt>
      <trkpt lat="49.05239" lon="-0.34409">
        <ele>70</ele>
        <time>2010-01-01T01:17:45Z</time>
      </trkpt>
      <trkpt lat="49.05244" lon="-0.34401">
        <ele>71</ele>
        <time>2010-01-01T01:17:47Z</time>
      </trkpt>
      <trkpt lat="49.0525" lon="-0.34386">
        <ele>73</ele>
        <time>2010-01-01T01:17:50Z</time>
      </trkpt>
      <trkpt lat="49.0526" lon="-0.34368">
        <ele>73</ele>
        <time>2010-01-01T01:17:54Z</time>
      </trkpt>
      <trkpt lat="49.05263" lon="-0.34363">
        <ele>74</ele>
        <time>2010-01-01T01:17:55Z</time>
      </trkpt>
      <trkpt lat="49.05263" lon="-0.34363">
        <ele>74</ele>
        <time>2010-01-01T01:17:55Z</time>
      </trkpt>
      <trkpt lat="49.05263" lon="-0.34363">
        <ele>74</ele>
        <time>2010-01-01T01:17:55Z</time>
      </trkpt>
      <trkpt lat="49.05275" lon="-0.34352">
        <ele>75</ele>
        <time>2010-01-01T01:17:59Z</time>
      </trkpt>
      <trkpt lat="49.05302" lon="-0.34332">
        <ele>76</ele>
        <time>2010-01-01T01:18:07Z</time>
      </trkpt>
      <trkpt lat="49.05324" lon="-0.34318">
        <ele>76</ele>
        <time>2010-01-01T01:18:13Z</time>
      </trkpt>
      <trkpt lat="49.05351" lon="-0.34303">
        <ele>77</ele>
        <time>2010-01-01T01:18:21Z</time>
      </trkpt>
      <trkpt lat="49.0539" lon="-0.34277">
        <ele>79</ele>
        <time>2010-01-01T01:18:32Z</time>
      </trkpt>
      <trkpt lat="49.0542" lon="-0.34255">
        <ele>81</ele>
        <time>2010-01-01T01:18:41Z</time>
      </trkpt>
      <trkpt lat="49.05452" lon="-0.34243">
        <ele>83</ele>
        <time>2010-01-01T01:18:50Z</time>
      </trkpt>
      <trkpt lat="49.05484" lon="-0.34234">
        <ele>85</ele>
        <time>2010-01-01T01:18:59Z</time>
      </trkpt>
      <trkpt lat="49.05504" lon="-0.34228">
        <ele>86</ele>
        <time>2010-01-01T01:19:04Z</time>
      </trkpt>
      <trkpt lat="49.05538" lon="-0.34218">
        <ele>88</ele>
        <time>2010-01-01T01:19:13Z</time>
      </trkpt>
      <trkpt lat="49.05574" lon="-0.34207">
        <ele>89</ele>
        <time>2010-01-01T01:19:23Z</time>
      </trkpt>
      <trkpt lat="49.0561" lon="-0.34196">
        <ele>90</ele>
        <time>2010-01-01T01:19:33Z</time>
      </trkpt>
      <trkpt lat="49.05636" lon="-0.34186">
        <ele>91</ele>
        <time>2010-01-01T01:19:40Z</time>
      </trkpt>
      <trkpt lat="49.05749" lon="-0.34164">
        <ele>91</ele>
        <time>2010-01-01T01:20:10Z</time>
      </trkpt>
      <trkpt lat="49.05782" lon="-0.34151">
        <ele>89</ele>
        <time>2010-01-01T01:20:19Z</time>
      </trkpt>
      <trkpt lat="49.05799" lon="-0.34182">
        <ele>89</ele>
        <time>2010-01-01T01:20:27Z</time>
      </trkpt>
      <trkpt lat="49.05842" lon="-0.34259">
        <ele>88</ele>
        <time>2010-01-01T01:20:44Z</time>
      </trkpt>
      <trkpt lat="49.05881" lon="-0.34334">
        <ele>88</ele>
        <time>2010-01-01T01:21:01Z</time>
      </trkpt>
      <trkpt lat="49.05921" lon="-0.34395">
        <ele>89</ele>
        <time>2010-01-01T01:21:16Z</time>
      </trkpt>
      <trkpt lat="49.0596" lon="-0.34459">
        <ele>90</ele>
        <time>2010-01-01T01:21:31Z</time>
      </trkpt>
      <trkpt lat="49.06001" lon="-0.34528">
        <ele>87</ele>
        <time>2010-01-01T01:21:48Z</time>
      </trkpt>
      <trkpt lat="49.0604" lon="-0.34575">
        <ele>86</ele>
        <time>2010-01-01T01:22:01Z</time>
      </trkpt>
      <trkpt lat="49.06093" lon="-0.34621">
        <ele>87</ele>
        <time>2010-01-01T01:22:17Z</time>
      </trkpt>
      <trkpt lat="49.06142" lon="-0.34658">
        <ele>87</ele>
        <time>2010-01-01T01:22:32Z</time>
      </trkpt>
      <trkpt lat="49.06164" lon="-0.34672">
        <ele>87</ele>
        <time>2010-01-01T01:22:38Z</time>
      </trkpt>
      <trkpt lat="49.06189" lon="-0.34707">
        <ele>84</ele>
        <time>2010-01-01T01:22:47Z</time>
      </trkpt>
      <trkpt lat="49.06203" lon="-0.34751">
        <ele>81</ele>
        <time>2010-01-01T01:22:56Z</time>
      </trkpt>
      <trkpt lat="49.06215" lon="-0.34805">
        <ele>79</ele>
        <time>2010-01-01T01:23:06Z</time>
      </trkpt>
      <trkpt lat="49.06242" lon="-0.34891">
        <ele>76</ele>
        <time>2010-01-01T01:23:22Z</time>
      </trkpt>
      <trkpt lat="49.06277" lon="-0.34976">
        <ele>70</ele>
        <time>2010-01-01T01:23:40Z</time>
      </trkpt>
      <trkpt lat="49.06305" lon="-0.35048">
        <ele>64</ele>
        <time>2010-01-01T01:23:55Z</time>
      </trkpt>
      <trkpt lat="49.06333" lon="-0.3515">
        <ele>61</ele>
        <time>2010-01-01T01:24:14Z</time>
      </trkpt>
      <trkpt lat="49.06364" lon="-0.35278">
        <ele>51</ele>
        <time>2010-01-01T01:24:38Z</time>
      </trkpt>
      <trkpt lat="49.06376" lon="-0.35334">
        <ele>46</ele>
        <time>2010-01-01T01:24:48Z</time>
      </trkpt>
      <trkpt lat="49.06375" lon="-0.35344">
        <ele>44</ele>
        <time>2010-01-01T01:24:50Z</time>
      </trkpt>
      <trkpt lat="49.0637" lon="-0.35364">
        <ele>42</ele>
        <time>2010-01-01T01:24:53Z</time>
      </trkpt>
      <trkpt lat="49.06359" lon="-0.35379">
        <ele>41</ele>
        <time>2010-01-01T01:24:57Z</time>
      </trkpt>
      <trkpt lat="49.06315" lon="-0.3539">
        <ele>42</ele>
        <time>2010-01-01T01:25:09Z</time>
      </trkpt>
      <trkpt lat="49.06254" lon="-0.35422">
        <ele>42</ele>
        <time>2010-01-01T01:25:27Z</time>
      </trkpt>
      <trkpt lat="49.06231" lon="-0.35443">
        <ele>41</ele>
        <time>2010-01-01T01:25:34Z</time>
      </trkpt>
      <trkpt lat="49.06186" lon="-0.35448">
        <ele>42</ele>
        <time>2010-01-01T01:25:46Z</time>
      </trkpt>
      <trkpt lat="49.06132" lon="-0.35444">
        <ele>42</ele>
        <time>2010-01-01T01:26:00Z</time>
      </trkpt>
      <trkpt lat="49.06064" lon="-0.35446">
        <ele>40</ele>
        <time>2010-01-01T01:26:18Z</time>
      </trkpt>
      <trkpt lat="49.06001" lon="-0.35436">
        <ele>42</ele>
        <time>2010-01-01T01:26:35Z</time>
      </trkpt>
      <trkpt lat="49.05959" lon="-0.3542">
        <ele>41</ele>
        <time>2010-01-01T01:26:47Z</time>
      </trkpt>
      <trkpt lat="49.05953" lon="-0.35424">
        <ele>40</ele>
        <time>2010-01-01T01:26:48Z</time>
      </trkpt>
      <trkpt lat="49.05951" lon="-0.35425">
        <ele>40</ele>
        <time>2010-01-01T01:26:49Z</time>
      </trkpt>
      <trkpt lat="49.0595" lon="-0.35426">
        <ele>40</ele>
        <time>2010-01-01T01:26:49Z</time>
      </trkpt>
      <trkpt lat="49.0595" lon="-0.35426">
        <ele>40</ele>
        <time>2010-01-01T01:26:49Z</time>
      </trkpt>
      <trkpt lat="49.0595" lon="-0.35425">
        <ele>40</ele>
        <time>2010-01-01T01:26:50Z</time>
      </trkpt>
      <trkpt lat="49.05951" lon="-0.35428">
        <ele>39</ele>
        <time>2010-01-01T01:26:50Z</time>
      </trkpt>
      <trkpt lat="49.05952" lon="-0.35429">
        <ele>39</ele>
        <time>2010-01-01T01:26:50Z</time>
      </trkpt>
      <trkpt lat="49.05942" lon="-0.35474">
        <ele>36</ele>
        <time>2010-01-01T01:26:59Z</time>
      </trkpt>
      <trkpt lat="49.05938" lon="-0.35486">
        <ele>37</ele>
        <time>2010-01-01T01:27:01Z</time>
      </trkpt>
      <trkpt lat="49.05918" lon="-0.35508">
        <ele>37</ele>
        <time>2010-01-01T01:27:08Z</time>
      </trkpt>
      <trkpt lat="49.05914" lon="-0.35533">
        <ele>38</ele>
        <time>2010-01-01T01:27:12Z</time>
      </trkpt>
      <trkpt lat="49.0591" lon="-0.35563">
        <ele>41</ele>
        <time>2010-01-01T01:27:18Z</time>
      </trkpt>
      <trkpt lat="49.05897" lon="-0.35573">
        <ele>42</ele>
        <time>2010-01-01T01:27:21Z</time>
      </trkpt>
      <trkpt lat="49.05876" lon="-0.3557">
        <ele>43</ele>
        <time>2010-01-01T01:27:27Z</time>
      </trkpt>
      <trkpt lat="49.05843" lon="-0.35569">
        <ele>45</ele>
        <time>2010-01-01T01:27:36Z</time>
      </trkpt>
      <trkpt lat="49.05809" lon="-0.35573">
        <ele>45</ele>
        <time>2010-01-01T01:27:45Z</time>
      </trkpt>
      <trkpt lat="49.05815" lon="-0.35607">
        <ele>49</ele>
        <time>2010-01-01T01:27:51Z</time>
      </trkpt>
      <trkpt lat="49.05846" lon="-0.35629">
        <ele>51</ele>
        <time>2010-01-01T01:28:01Z</time>
      </trkpt>
      <trkpt lat="49.05877" lon="-0.35651">
        <ele>55</ele>
        <time>2010-01-01T01:28:09Z</time>
      </trkpt>
      <trkpt lat="49.05888" lon="-0.35658">
        <ele>57</ele>
        <time>2010-01-01T01:28:13Z</time>
      </trkpt>
      <trkpt lat="49.05902" lon="-0.35703">
        <ele>63</ele>
        <time>2010-01-01T01:28:21Z</time>
      </trkpt>
      <trkpt lat="49.05917" lon="-0.35745">
        <ele>65</ele>
        <time>2010-01-01T01:28:30Z</time>
      </trkpt>
      <trkpt lat="49.05925" lon="-0.35774">
        <ele>66</ele>
        <time>2010-01-01T01:28:35Z</time>
      </trkpt>
      <trkpt lat="49.05936" lon="-0.35814">
        <ele>66</ele>
        <time>2010-01-01T01:28:43Z</time>
      </trkpt>
      <trkpt lat="49.05946" lon="-0.35858">
        <ele>66</ele>
        <time>2010-01-01T01:28:51Z</time>
      </trkpt>
      <trkpt lat="49.0596" lon="-0.35909">
        <ele>67</ele>
        <time>2010-01-01T01:29:01Z</time>
      </trkpt>
      <trkpt lat="49.05973" lon="-0.35954">
        <ele>66</ele>
        <time>2010-01-01T01:29:09Z</time>
      </trkpt>
      <trkpt lat="49.0599" lon="-0.36011">
        <ele>68</ele>
        <time>2010-01-01T01:29:20Z</time>
      </trkpt>
      <trkpt lat="49.06001" lon="-0.3605">
        <ele>68</ele>
        <time>2010-01-01T01:29:28Z</time>
      </trkpt>
      <trkpt lat="49.06003" lon="-0.36055">
        <ele>68</ele>
        <time>2010-01-01T01:29:29Z</time>
      </trkpt>
      <trkpt lat="49.06009" lon="-0.36062">
        <ele>68</ele>
        <time>2010-01-01T01:29:31Z</time>
      </trkpt>
      <trkpt lat="49.06086" lon="-0.36023">
        <ele>62</ele>
        <time>2010-01-01T01:29:52Z</time>
      </trkpt>
      <trkpt lat="49.06166" lon="-0.35996">
        <ele>58</ele>
        <time>2010-01-01T01:30:14Z</time>
      </trkpt>
      <trkpt lat="49.06186" lon="-0.35991">
        <ele>57</ele>
        <time>2010-01-01T01:30:19Z</time>
      </trkpt>
      <trkpt lat="49.06193" lon="-0.35987">
        <ele>57</ele>
        <time>2010-01-01T01:30:21Z</time>
      </trkpt>
      <trkpt lat="49.06264" lon="-0.35922">
        <ele>52</ele>
        <time>2010-01-01T01:30:44Z</time>
      </trkpt>
      <trkpt lat="49.0634" lon="-0.35833">
        <ele>48</ele>
        <time>2010-01-01T01:31:09Z</time>
      </trkpt>
      <trkpt lat="49.06385" lon="-0.35801">
        <ele>43</ele>
        <time>2010-01-01T01:31:22Z</time>
      </trkpt>
      <trkpt lat="49.06421" lon="-0.3577">
        <ele>40</ele>
        <time>2010-01-01T01:31:33Z</time>
      </trkpt>
      <trkpt lat="49.0644" lon="-0.35771">
        <ele>39</ele>
        <time>2010-01-01T01:31:39Z</time>
      </trkpt>
      <trkpt lat="49.06499" lon="-0.35826">
        <ele>38</ele>
        <time>2010-01-01T01:31:57Z</time>
      </trkpt>
      <trkpt lat="49.0653" lon="-0.35861">
        <ele>35</ele>
        <time>2010-01-01T01:32:07Z</time>
      </trkpt>
      <trkpt lat="49.0655" lon="-0.35917">
        <ele>36</ele>
        <time>2010-01-01T01:32:18Z</time>
      </trkpt>
      <trkpt lat="49.06555" lon="-0.35931">
        <ele>36</ele>
        <time>2010-01-01T01:32:21Z</time>
      </trkpt>
      <trkpt lat="49.06564" lon="-0.35947">
        <ele>35</ele>
        <time>2010-01-01T01:32:25Z</time>
      </trkpt>
      <trkpt lat="49.06545" lon="-0.36002">
        <ele>36</ele>
        <time>2010-01-01T01:32:36Z</time>
      </trkpt>
      <trkpt lat="49.06509" lon="-0.36012">
        <ele>40</ele>
        <time>2010-01-01T01:32:46Z</time>
      </trkpt>
      <trkpt lat="49.06468" lon="-0.36066">
        <ele>46</ele>
        <time>2010-01-01T01:33:00Z</time>
      </trkpt>
      <trkpt lat="49.06433" lon="-0.36112">
        <ele>49</ele>
        <time>2010-01-01T01:33:12Z</time>
      </trkpt>
      <trkpt lat="49.06399" lon="-0.36145">
        <ele>51</ele>
        <time>2010-01-01T01:33:23Z</time>
      </trkpt>
      <trkpt lat="49.06369" lon="-0.36178">
        <ele>53</ele>
        <time>2010-01-01T01:33:33Z</time>
      </trkpt>
      <trkpt lat="49.06324" lon="-0.36226">
        <ele>56</ele>
        <time>2010-01-01T01:33:48Z</time>
      </trkpt>
      <trkpt lat="49.06312" lon="-0.36236">
        <ele>56</ele>
        <time>2010-01-01T01:33:51Z</time>
      </trkpt>
      <trkpt lat="49.06272" lon="-0.36244">
        <ele>61</ele>
        <time>2010-01-01T01:34:02Z</time>
      </trkpt>
      <trkpt lat="49.06238" lon="-0.3623">
        <ele>62</ele>
        <time>2010-01-01T01:34:12Z</time>
      </trkpt>
      <trkpt lat="49.06209" lon="-0.36221">
        <ele>62</ele>
        <time>2010-01-01T01:34:19Z</time>
      </trkpt>
      <trkpt lat="49.06182" lon="-0.36219">
        <ele>64</ele>
        <time>2010-01-01T01:34:27Z</time>
      </trkpt>
      <trkpt lat="49.0614" lon="-0.36233">
        <ele>66</ele>
        <time>2010-01-01T01:34:38Z</time>
      </trkpt>
      <trkpt lat="49.06096" lon="-0.36249">
        <ele>68</ele>
        <time>2010-01-01T01:34:50Z</time>
      </trkpt>
      <trkpt lat="49.06059" lon="-0.36266">
        <ele>70</ele>
        <time>2010-01-01T01:35:00Z</time>
      </trkpt>
      <trkpt lat="49.06028" lon="-0.36285">
        <ele>72</ele>
        <time>2010-01-01T01:35:09Z</time>
      </trkpt>
      <trkpt lat="49.05992" lon="-0.36309">
        <ele>75</ele>
        <time>2010-01-01T01:35:20Z</time>
      </trkpt>
      <trkpt lat="49.05957" lon="-0.36331">
        <ele>76</ele>
        <time>2010-01-01T01:35:30Z</time>
      </trkpt>
      <trkpt lat="49.05902" lon="-0.36355">
        <ele>79</ele>
        <time>2010-01-01T01:35:45Z</time>
      </trkpt>
      <trkpt lat="49.05853" lon="-0.3637">
        <ele>82</ele>
        <time>2010-01-01T01:35:58Z</time>
      </trkpt>
      <trkpt lat="49.05821" lon="-0.3638">
        <ele>84</ele>
        <time>2010-01-01T01:36:07Z</time>
      </trkpt>
      <trkpt lat="49.05782" lon="-0.36393">
        <ele>85</ele>
        <time>2010-01-01T01:36:18Z</time>
      </trkpt>
      <trkpt lat="49.05748" lon="-0.36406">
        <ele>86</ele>
        <time>2010-01-01T01:36:27Z</time>
      </trkpt>
      <trkpt lat="49.05702" lon="-0.36438">
        <ele>88</ele>
        <time>2010-01-01T01:36:41Z</time>
      </trkpt>
      <trkpt lat="49.05661" lon="-0.36468">
        <ele>90</ele>
        <time>2010-01-01T01:36:53Z</time>
      </trkpt>
      <trkpt lat="49.05211" lon="-0.3646">
        <ele>105</ele>
        <time>2010-01-01T01:38:53Z</time>
      </trkpt>
      <trkpt lat="49.05024" lon="-0.36334">
        <ele>102</ele>
        <time>2010-01-01T01:39:48Z</time>
      </trkpt>
      <trkpt lat="49.0499" lon="-0.36306">
        <ele>103</ele>
        <time>2010-01-01T01:39:58Z</time>
      </trkpt>
      <trkpt lat="49.04936" lon="-0.36272">
        <ele>107</ele>
        <time>2010-01-01T01:40:13Z</time>
      </trkpt>
      <trkpt lat="49.04896" lon="-0.36247">
        <ele>108</ele>
        <time>2010-01-01T01:40:25Z</time>
      </trkpt>
      <trkpt lat="49.04447" lon="-0.35989">
        <ele>120</ele>
        <time>2010-01-01T01:42:33Z</time>
      </trkpt>
      <trkpt lat="49.04355" lon="-0.35948">
        <ele>122</ele>
        <time>2010-01-01T01:42:59Z</time>
      </trkpt>
      <trkpt lat="49.04295" lon="-0.35907">
        <ele>124</ele>
        <time>2010-01-01T01:43:16Z</time>
      </trkpt>
      <trkpt lat="49.04005" lon="-0.35735">
        <ele>127</ele>
        <time>2010-01-01T01:44:39Z</time>
      </trkpt>
      <trkpt lat="49.03428" lon="-0.35398">
        <ele>128</ele>
        <time>2010-01-01T01:47:24Z</time>
      </trkpt>
      <trkpt lat="49.03421" lon="-0.35393">
        <ele>128</ele>
        <time>2010-01-01T01:47:26Z</time>
      </trkpt>
      <trkpt lat="49.03408" lon="-0.35387">
        <ele>129</ele>
        <time>2010-01-01T01:47:30Z</time>
      </trkpt>
      <trkpt lat="49.03113" lon="-0.35185">
        <ele>130</ele>
        <time>2010-01-01T01:48:56Z</time>
      </trkpt>
      <trkpt lat="49.02982" lon="-0.35097">
        <ele>133</ele>
        <time>2010-01-01T01:49:34Z</time>
      </trkpt>
      <trkpt lat="49.02862" lon="-0.35019">
        <ele>137</ele>
        <time>2010-01-01T01:50:09Z</time>
      </trkpt>
      <trkpt lat="49.02783" lon="-0.34968">
        <ele>138</ele>
        <time>2010-01-01T01:50:32Z</time>
      </trkpt>
      <trkpt lat="49.02735" lon="-0.34937">
        <ele>135</ele>
        <time>2010-01-01T01:50:46Z</time>
      </trkpt>
      <trkpt lat="49.02723" lon="-0.34936">
        <ele>134</ele>
        <time>2010-01-01T01:50:49Z</time>
      </trkpt>
      <trkpt lat="49.02713" lon="-0.34941">
        <ele>133</ele>
        <time>2010-01-01T01:50:52Z</time>
      </trkpt>
      <trkpt lat="49.02702" lon="-0.34952">
        <ele>133</ele>
        <time>2010-01-01T01:50:56Z</time>
      </trkpt>
      <trkpt lat="49.02676" lon="-0.35002">
        <ele>133</ele>
        <time>2010-01-01T01:51:07Z</time>
      </trkpt>
      <trkpt lat="49.02632" lon="-0.35091">
        <ele>137</ele>
        <time>2010-01-01T01:51:26Z</time>
      </trkpt>
      <trkpt lat="49.0258" lon="-0.35187">
        <ele>137</ele>
        <time>2010-01-01T01:51:48Z</time>
      </trkpt>
      <trkpt lat="49.02541" lon="-0.35261">
        <ele>139</ele>
        <time>2010-01-01T01:52:05Z</time>
      </trkpt>
      <trkpt lat="49.02526" lon="-0.35291">
        <ele>138</ele>
        <time>2010-01-01T01:52:11Z</time>
      </trkpt>
      <trkpt lat="49.02513" lon="-0.35275">
        <ele>139</ele>
        <time>2010-01-01T01:52:16Z</time>
      </trkpt>
      <trkpt lat="49.02421" lon="-0.35094">
        <ele>130</ele>
        <time>2010-01-01T01:52:56Z</time>
      </trkpt>
      <trkpt lat="49.02354" lon="-0.3497">
        <ele>124</ele>
        <time>2010-01-01T01:53:24Z</time>
      </trkpt>
      <trkpt lat="49.02304" lon="-0.34863">
        <ele>121</ele>
        <time>2010-01-01T01:53:47Z</time>
      </trkpt>
      <trkpt lat="49.0227" lon="-0.34806">
        <ele>121</ele>
        <time>2010-01-01T01:54:00Z</time>
      </trkpt>
      <trkpt lat="49.02239" lon="-0.34754">
        <ele>122</ele>
        <time>2010-01-01T01:54:13Z</time>
      </trkpt>
      <trkpt lat="49.02231" lon="-0.34741">
        <ele>122</ele>
        <time>2010-01-01T01:54:16Z</time>
      </trkpt>
      <trkpt lat="49.0221" lon="-0.34703">
        <ele>124</ele>
        <time>2010-01-01T01:54:24Z</time>
      </trkpt>
      <trkpt lat="49.02192" lon="-0.34681">
        <ele>126</ele>
        <time>2010-01-01T01:54:31Z</time>
      </trkpt>
      <trkpt lat="49.02158" lon="-0.34619">
        <ele>130</ele>
        <time>2010-01-01T01:54:45Z</time>
      </trkpt>
      <trkpt lat="49.02131" lon="-0.34556">
        <ele>134</ele>
        <time>2010-01-01T01:54:58Z</time>
      </trkpt>
      <trkpt lat="49.02107" lon="-0.34499">
        <ele>136</ele>
        <time>2010-01-01T01:55:10Z</time>
      </trkpt>
      <trkpt lat="49.02079" lon="-0.34416">
        <ele>136</ele>
        <time>2010-01-01T01:55:26Z</time>
      </trkpt>
      <trkpt lat="49.02051" lon="-0.34336">
        <ele>136</ele>
        <time>2010-01-01T01:55:42Z</time>
      </trkpt>
      <trkpt lat="49.02045" lon="-0.34317">
        <ele>135</ele>
        <time>2010-01-01T01:55:46Z</time>
      </trkpt>
      <trkpt lat="49.02045" lon="-0.34314">
        <ele>135</ele>
        <time>2010-01-01T01:55:46Z</time>
      </trkpt>
      <trkpt lat="49.02058" lon="-0.34296">
        <ele>134</ele>
        <time>2010-01-01T01:55:51Z</time>
      </trkpt>
      <trkpt lat="49.02057" lon="-0.34277">
        <ele>133</ele>
        <time>2010-01-01T01:55:54Z</time>
      </trkpt>
      <trkpt lat="49.02046" lon="-0.34241">
        <ele>132</ele>
        <time>2010-01-01T01:56:01Z</time>
      </trkpt>
      <trkpt lat="49.02036" lon="-0.34204">
        <ele>131</ele>
        <time>2010-01-01T01:56:08Z</time>
      </trkpt>
      <trkpt lat="49.02024" lon="-0.34162">
        <ele>131</ele>
        <time>2010-01-01T01:56:16Z</time>
      </trkpt>
      <trkpt lat="49.02001" lon="-0.34108">
        <ele>131</ele>
        <time>2010-01-01T01:56:28Z</time>
      </trkpt>
      <trkpt lat="49.01965" lon="-0.34031">
        <ele>128</ele>
        <time>2010-01-01T01:56:44Z</time>
      </trkpt>
      <trkpt lat="49.01925" lon="-0.339">
        <ele>122</ele>
        <time>2010-01-01T01:57:10Z</time>
      </trkpt>
      <trkpt lat="49.01891" lon="-0.33757">
        <ele>128</ele>
        <time>2010-01-01T01:57:36Z</time>
      </trkpt>
      <trkpt lat="49.01875" lon="-0.33697">
        <ele>129</ele>
        <time>2010-01-01T01:57:47Z</time>
      </trkpt>
      <trkpt lat="49.01852" lon="-0.33633">
        <ele>130</ele>
        <time>2010-01-01T01:58:00Z</time>
      </trkpt>
      <trkpt lat="49.0183" lon="-0.33585">
        <ele>132</ele>
        <time>2010-01-01T01:58:11Z</time>
      </trkpt>
      <trkpt lat="49.01844" lon="-0.33546">
        <ele>131</ele>
        <time>2010-01-01T01:58:18Z</time>
      </trkpt>
      <trkpt lat="49.01816" lon="-0.33426">
        <ele>131</ele>
        <time>2010-01-01T01:58:41Z</time>
      </trkpt>
      <trkpt lat="49.01792" lon="-0.33394">
        <ele>131</ele>
        <time>2010-01-01T01:58:49Z</time>
      </trkpt>
      <trkpt lat="49.01763" lon="-0.3336">
        <ele>133</ele>
        <time>2010-01-01T01:58:59Z</time>
      </trkpt>
      <trkpt lat="49.01736" lon="-0.3332">
        <ele>134</ele>
        <time>2010-01-01T01:59:09Z</time>
      </trkpt>
      <trkpt lat="49.01708" lon="-0.33272">
        <ele>136</ele>
        <time>2010-01-01T01:59:20Z</time>
      </trkpt>
      <trkpt lat="49.01684" lon="-0.33231">
        <ele>135</ele>
        <time>2010-01-01T01:59:30Z</time>
      </trkpt>
      <trkpt lat="49.01665" lon="-0.33196">
        <ele>136</ele>
        <time>2010-01-01T01:59:38Z</time>
      </trkpt>
      <trkpt lat="49.01648" lon="-0.33158">
        <ele>136</ele>
        <time>2010-01-01T01:59:46Z</time>
      </trkpt>
      <trkpt lat="49.0163" lon="-0.3312">
        <ele>137</ele>
        <time>2010-01-01T01:59:54Z</time>
      </trkpt>
      <trkpt lat="49.01603" lon="-0.33066">
        <ele>136</ele>
        <time>2010-01-01T02:00:06Z</time>
      </trkpt>
      <trkpt lat="49.01578" lon="-0.33016">
        <ele>138</ele>
        <time>2010-01-01T02:00:17Z</time>
      </trkpt>
      <trkpt lat="49.01547" lon="-0.32954">
        <ele>138</ele>
        <time>2010-01-01T02:00:31Z</time>
      </trkpt>
      <trkpt lat="49.01521" lon="-0.32903">
        <ele>139</ele>
        <time>2010-01-01T02:00:42Z</time>
      </trkpt>
      <trkpt lat="49.01518" lon="-0.32901">
        <ele>139</ele>
        <time>2010-01-01T02:00:43Z</time>
      </trkpt>
      <trkpt lat="49.01512" lon="-0.32891">
        <ele>139</ele>
        <time>2010-01-01T02:00:45Z</time>
      </trkpt>
      <trkpt lat="49.01488" lon="-0.32898">
        <ele>140</ele>
        <time>2010-01-01T02:00:51Z</time>
      </trkpt>
      <trkpt lat="49.01469" lon="-0.32898">
        <ele>141</ele>
        <time>2010-01-01T02:00:57Z</time>
      </trkpt>
      <trkpt lat="49.0146" lon="-0.32873">
        <ele>141</ele>
        <time>2010-01-01T02:01:02Z</time>
      </trkpt>
      <trkpt lat="49.0144" lon="-0.32844">
        <ele>141</ele>
        <time>2010-01-01T02:01:09Z</time>
      </trkpt>
      <trkpt lat="49.0142" lon="-0.32804">
        <ele>140</ele>
        <time>2010-01-01T02:01:18Z</time>
      </trkpt>
      <trkpt lat="49.01391" lon="-0.32728">
        <ele>140</ele>
        <time>2010-01-01T02:01:33Z</time>
      </trkpt>
      <trkpt lat="49.01358" lon="-0.32659">
        <ele>139</ele>
        <time>2010-01-01T02:01:48Z</time>
      </trkpt>
      <trkpt lat="49.01311" lon="-0.32579">
        <ele>138</ele>
        <time>2010-01-01T02:02:07Z</time>
      </trkpt>
      <trkpt lat="49.01305" lon="-0.32567">
        <ele>138</ele>
        <time>2010-01-01T02:02:10Z</time>
      </trkpt>
      <trkpt lat="49.013" lon="-0.32548">
        <ele>137</ele>
        <time>2010-01-01T02:02:13Z</time>
      </trkpt>
      <trkpt lat="49.013" lon="-0.32542">
        <ele>137</ele>
        <time>2010-01-01T02:02:14Z</time>
      </trkpt>
      <trkpt lat="49.01294" lon="-0.32533">
        <ele>137</ele>
        <time>2010-01-01T02:02:16Z</time>
      </trkpt>
      <trkpt lat="49.01277" lon="-0.32537">
        <ele>138</ele>
        <time>2010-01-01T02:02:21Z</time>
      </trkpt>
      <trkpt lat="49.01273" lon="-0.32538">
        <ele>138</ele>
        <time>2010-01-01T02:02:22Z</time>
      </trkpt>
      <trkpt lat="49.01272" lon="-0.32537">
        <ele>138</ele>
        <time>2010-01-01T02:02:22Z</time>
      </trkpt>
      <trkpt lat="49.01267" lon="-0.32538">
        <ele>138</ele>
        <time>2010-01-01T02:02:24Z</time>
      </trkpt>
      <trkpt lat="49.01257" lon="-0.32541">
        <ele>138</ele>
        <time>2010-01-01T02:02:26Z</time>
      </trkpt>
      <trkpt lat="49.01258" lon="-0.32542">
        <ele>138</ele>
        <time>2010-01-01T02:02:26Z</time>
      </trkpt>
      <trkpt lat="49.01258" lon="-0.32542">
        <ele>138</ele>
        <time>2010-01-01T02:02:26Z</time>
      </trkpt>
      <trkpt lat="49.01259" lon="-0.32541">
        <ele>138</ele>
        <time>2010-01-01T02:02:27Z</time>
      </trkpt>
      <trkpt lat="49.01259" lon="-0.32541">
        <ele>138</ele>
        <time>2010-01-01T02:02:27Z</time>
      </trkpt>
      <trkpt lat="49.01259" lon="-0.32541">
        <ele>138</ele>
        <time>2010-01-01T02:02:27Z</time>
      </trkpt>
      <trkpt lat="49.01259" lon="-0.32542">
        <ele>138</ele>
        <time>2010-01-01T02:02:27Z</time>
      </trkpt>
      <trkpt lat="49.01251" lon="-0.32547">
        <ele>138</ele>
        <time>2010-01-01T02:02:29Z</time>
      </trkpt>
      <trkpt lat="49.0125" lon="-0.32548">
        <ele>138</ele>
        <time>2010-01-01T02:02:30Z</time>
      </trkpt>
      <trkpt lat="49.01227" lon="-0.32555">
        <ele>138</ele>
        <time>2010-01-01T02:02:36Z</time>
      </trkpt>
      <trkpt lat="49.01189" lon="-0.32573">
        <ele>140</ele>
        <time>2010-01-01T02:02:47Z</time>
      </trkpt>
      <trkpt lat="49.01179" lon="-0.32615">
        <ele>140</ele>
        <time>2010-01-01T02:02:54Z</time>
      </trkpt>
      <trkpt lat="49.01167" lon="-0.32668">
        <ele>141</ele>
        <time>2010-01-01T02:03:04Z</time>
      </trkpt>
      <trkpt lat="49.01146" lon="-0.32723">
        <ele>142</ele>
        <time>2010-01-01T02:03:15Z</time>
      </trkpt>
      <trkpt lat="49.01115" lon="-0.32786">
        <ele>143</ele>
        <time>2010-01-01T02:03:29Z</time>
      </trkpt>
      <trkpt lat="49.01086" lon="-0.32841">
        <ele>144</ele>
        <time>2010-01-01T02:03:42Z</time>
      </trkpt>
      <trkpt lat="49.01059" lon="-0.32892">
        <ele>145</ele>
        <time>2010-01-01T02:03:53Z</time>
      </trkpt>
      <trkpt lat="49.01035" lon="-0.32929">
        <ele>146</ele>
        <time>2010-01-01T02:04:02Z</time>
      </trkpt>
      <trkpt lat="49.01017" lon="-0.32972">
        <ele>147</ele>
        <time>2010-01-01T02:04:11Z</time>
      </trkpt>
      <trkpt lat="49.01001" lon="-0.33">
        <ele>147</ele>
        <time>2010-01-01T02:04:18Z</time>
      </trkpt>
      <trkpt lat="49.0098" lon="-0.33041">
        <ele>147</ele>
        <time>2010-01-01T02:04:27Z</time>
      </trkpt>
      <trkpt lat="49.00961" lon="-0.33081">
        <ele>148</ele>
        <time>2010-01-01T02:04:35Z</time>
      </trkpt>
      <trkpt lat="49.0094" lon="-0.33126">
        <ele>148</ele>
        <time>2010-01-01T02:04:45Z</time>
      </trkpt>
      <trkpt lat="49.00916" lon="-0.33175">
        <ele>150</ele>
        <time>2010-01-01T02:04:56Z</time>
      </trkpt>
      <trkpt lat="49.00894" lon="-0.33223">
        <ele>152</ele>
        <time>2010-01-01T02:05:06Z</time>
      </trkpt>
      <trkpt lat="49.00876" lon="-0.33263">
        <ele>152</ele>
        <time>2010-01-01T02:05:14Z</time>
      </trkpt>
      <trkpt lat="49.00856" lon="-0.33303">
        <ele>153</ele>
        <time>2010-01-01T02:05:23Z</time>
      </trkpt>
      <trkpt lat="49.00832" lon="-0.33347">
        <ele>154</ele>
        <time>2010-01-01T02:05:33Z</time>
      </trkpt>
      <trkpt lat="49.00809" lon="-0.33387">
        <ele>154</ele>
        <time>2010-01-01T02:05:43Z</time>
      </trkpt>
      <trkpt lat="49.0078" lon="-0.33441">
        <ele>156</ele>
        <time>2010-01-01T02:05:55Z</time>
      </trkpt>
      <trkpt lat="49.00753" lon="-0.33487">
        <ele>158</ele>
        <time>2010-01-01T02:06:06Z</time>
      </trkpt>
      <trkpt lat="49.00724" lon="-0.33525">
        <ele>159</ele>
        <time>2010-01-01T02:06:16Z</time>
      </trkpt>
      <trkpt lat="49.00686" lon="-0.3357">
        <ele>159</ele>
        <time>2010-01-01T02:06:29Z</time>
      </trkpt>
      <trkpt lat="49.0064" lon="-0.33623">
        <ele>160</ele>
        <time>2010-01-01T02:06:44Z</time>
      </trkpt>
      <trkpt lat="49.00599" lon="-0.33668">
        <ele>160</ele>
        <time>2010-01-01T02:06:57Z</time>
      </trkpt>
      <trkpt lat="49.00554" lon="-0.33718">
        <ele>159</ele>
        <time>2010-01-01T02:07:12Z</time>
      </trkpt>
      <trkpt lat="49.00505" lon="-0.33774">
        <ele>161</ele>
        <time>2010-01-01T02:07:29Z</time>
      </trkpt>
      <trkpt lat="49.00487" lon="-0.33795">
        <ele>161</ele>
        <time>2010-01-01T02:07:35Z</time>
      </trkpt>
      <trkpt lat="49.00459" lon="-0.33828">
        <ele>160</ele>
        <time>2010-01-01T02:07:44Z</time>
      </trkpt>
      <trkpt lat="49.00437" lon="-0.33853">
        <ele>161</ele>
        <time>2010-01-01T02:07:52Z</time>
      </trkpt>
      <trkpt lat="49.00429" lon="-0.33857">
        <ele>161</ele>
        <time>2010-01-01T02:07:54Z</time>
      </trkpt>
      <trkpt lat="49.00421" lon="-0.33849">
        <ele>161</ele>
        <time>2010-01-01T02:07:56Z</time>
      </trkpt>
      <trkpt lat="49.0039" lon="-0.33788">
        <ele>159</ele>
        <time>2010-01-01T02:08:10Z</time>
      </trkpt>
      <trkpt lat="49.00357" lon="-0.33716">
        <ele>159</ele>
        <time>2010-01-01T02:08:25Z</time>
      </trkpt>
      <trkpt lat="49.00349" lon="-0.33707">
        <ele>159</ele>
        <time>2010-01-01T02:08:28Z</time>
      </trkpt>
      <trkpt lat="49.00318" lon="-0.33734">
        <ele>159</ele>
        <time>2010-01-01T02:08:37Z</time>
      </trkpt>
      <trkpt lat="49.00259" lon="-0.33774">
        <ele>161</ele>
        <time>2010-01-01T02:08:55Z</time>
      </trkpt>
      <trkpt lat="49.00208" lon="-0.33789">
        <ele>162</ele>
        <time>2010-01-01T02:09:09Z</time>
      </trkpt>
      <trkpt lat="49.00129" lon="-0.33815">
        <ele>161</ele>
        <time>2010-01-01T02:09:30Z</time>
      </trkpt>
      <trkpt lat="49.00052" lon="-0.33815">
        <ele>165</ele>
        <time>2010-01-01T02:09:51Z</time>
      </trkpt>
      <trkpt lat="49.00003" lon="-0.33817">
        <ele>167</ele>
        <time>2010-01-01T02:10:04Z</time>
      </trkpt>
      <trkpt lat="48.99958" lon="-0.33827">
        <ele>166</ele>
        <time>2010-01-01T02:10:16Z</time>
      </trkpt>
      <trkpt lat="48.99914" lon="-0.33814">
        <ele>166</ele>
        <time>2010-01-01T02:10:28Z</time>
      </trkpt>
      <trkpt lat="48.99876" lon="-0.33801">
        <ele>168</ele>
        <time>2010-01-01T02:10:38Z</time>
      </trkpt>
      <trkpt lat="48.99822" lon="-0.33791">
        <ele>170</ele>
        <time>2010-01-01T02:10:53Z</time>
      </trkpt>
      <trkpt lat="48.9978" lon="-0.33783">
        <ele>171</ele>
        <time>2010-01-01T02:11:04Z</time>
      </trkpt>
      <trkpt lat="48.99726" lon="-0.33772">
        <ele>173</ele>
        <time>2010-01-01T02:11:19Z</time>
      </trkpt>
      <trkpt lat="48.99681" lon="-0.33758">
        <ele>175</ele>
        <time>2010-01-01T02:11:31Z</time>
      </trkpt>
      <trkpt lat="48.9955" lon="-0.33726">
        <ele>176</ele>
        <time>2010-01-01T02:12:06Z</time>
      </trkpt>
      <trkpt lat="48.99492" lon="-0.33705">
        <ele>174</ele>
        <time>2010-01-01T02:12:22Z</time>
      </trkpt>
      <trkpt lat="48.99488" lon="-0.33703">
        <ele>173</ele>
        <time>2010-01-01T02:12:23Z</time>
      </trkpt>
      <trkpt lat="48.99487" lon="-0.33702">
        <ele>173</ele>
        <time>2010-01-01T02:12:24Z</time>
      </trkpt>
      <trkpt lat="48.99421" lon="-0.33678">
        <ele>171</ele>
        <time>2010-01-01T02:12:42Z</time>
      </trkpt>
      <trkpt lat="48.99392" lon="-0.33662">
        <ele>171</ele>
        <time>2010-01-01T02:12:50Z</time>
      </trkpt>
      <trkpt lat="48.99342" lon="-0.33618">
        <ele>172</ele>
        <time>2010-01-01T02:13:05Z</time>
      </trkpt>
      <trkpt lat="48.99294" lon="-0.33608">
        <ele>171</ele>
        <time>2010-01-01T02:13:18Z</time>
      </trkpt>
      <trkpt lat="48.99179" lon="-0.3371">
        <ele>161</ele>
        <time>2010-01-01T02:13:54Z</time>
      </trkpt>
      <trkpt lat="48.98996" lon="-0.33788">
        <ele>142</ele>
        <time>2010-01-01T02:14:45Z</time>
      </trkpt>
      <trkpt lat="48.98976" lon="-0.33807">
        <ele>141</ele>
        <time>2010-01-01T02:14:51Z</time>
      </trkpt>
      <trkpt lat="48.98994" lon="-0.33842">
        <ele>142</ele>
        <time>2010-01-01T02:14:59Z</time>
      </trkpt>
      <trkpt lat="48.9901" lon="-0.3388">
        <ele>143</ele>
        <time>2010-01-01T02:15:07Z</time>
      </trkpt>
      <trkpt lat="48.99021" lon="-0.33923">
        <ele>144</ele>
        <time>2010-01-01T02:15:15Z</time>
      </trkpt>
      <trkpt lat="48.99029" lon="-0.33969">
        <ele>144</ele>
        <time>2010-01-01T02:15:23Z</time>
      </trkpt>
      <trkpt lat="48.99029" lon="-0.33994">
        <ele>144</ele>
        <time>2010-01-01T02:15:27Z</time>
      </trkpt>
      <trkpt lat="48.99024" lon="-0.34001">
        <ele>143</ele>
        <time>2010-01-01T02:15:29Z</time>
      </trkpt>
      <trkpt lat="48.98992" lon="-0.34014">
        <ele>143</ele>
        <time>2010-01-01T02:15:38Z</time>
      </trkpt>
      <trkpt lat="48.98964" lon="-0.3402">
        <ele>142</ele>
        <time>2010-01-01T02:15:46Z</time>
      </trkpt>
      <trkpt lat="48.98931" lon="-0.34">
        <ele>142</ele>
        <time>2010-01-01T02:15:55Z</time>
      </trkpt>
      <trkpt lat="48.98851" lon="-0.33962">
        <ele>136</ele>
        <time>2010-01-01T02:16:17Z</time>
      </trkpt>
      <trkpt lat="48.98829" lon="-0.33952">
        <ele>133</ele>
        <time>2010-01-01T02:16:24Z</time>
      </trkpt>
      <trkpt lat="48.98778" lon="-0.33988">
        <ele>126</ele>
        <time>2010-01-01T02:16:39Z</time>
      </trkpt>
      <trkpt lat="48.98731" lon="-0.34025">
        <ele>124</ele>
        <time>2010-01-01T02:16:53Z</time>
      </trkpt>
      <trkpt lat="48.98715" lon="-0.34044">
        <ele>124</ele>
        <time>2010-01-01T02:16:58Z</time>
      </trkpt>
      <trkpt lat="48.9871" lon="-0.34053">
        <ele>124</ele>
        <time>2010-01-01T02:17:00Z</time>
      </trkpt>
      <trkpt lat="48.987" lon="-0.34063">
        <ele>124</ele>
        <time>2010-01-01T02:17:03Z</time>
      </trkpt>
      <trkpt lat="48.98686" lon="-0.34078">
        <ele>124</ele>
        <time>2010-01-01T02:17:08Z</time>
      </trkpt>
      <trkpt lat="48.98673" lon="-0.34086">
        <ele>124</ele>
        <time>2010-01-01T02:17:12Z</time>
      </trkpt>
      <trkpt lat="48.98655" lon="-0.34102">
        <ele>124</ele>
        <time>2010-01-01T02:17:17Z</time>
      </trkpt>
      <trkpt lat="48.98636" lon="-0.3411">
        <ele>123</ele>
        <time>2010-01-01T02:17:23Z</time>
      </trkpt>
      <trkpt lat="48.98633" lon="-0.3411">
        <ele>123</ele>
        <time>2010-01-01T02:17:23Z</time>
      </trkpt>
      <trkpt lat="48.98633" lon="-0.34013">
        <ele>122</ele>
        <time>2010-01-01T02:17:40Z</time>
      </trkpt>
      <trkpt lat="48.98613" lon="-0.33928">
        <ele>120</ele>
        <time>2010-01-01T02:17:56Z</time>
      </trkpt>
      <trkpt lat="48.98611" lon="-0.33918">
        <ele>120</ele>
        <time>2010-01-01T02:17:58Z</time>
      </trkpt>
      <trkpt lat="48.98613" lon="-0.33887">
        <ele>119</ele>
        <time>2010-01-01T02:18:03Z</time>
      </trkpt>
      <trkpt lat="48.98616" lon="-0.33867">
        <ele>119</ele>
        <time>2010-01-01T02:18:07Z</time>
      </trkpt>
      <trkpt lat="48.98619" lon="-0.33858">
        <ele>119</ele>
        <time>2010-01-01T02:18:09Z</time>
      </trkpt>
      <trkpt lat="48.98625" lon="-0.33842">
        <ele>120</ele>
        <time>2010-01-01T02:18:12Z</time>
      </trkpt>
      <trkpt lat="48.98635" lon="-0.33829">
        <ele>120</ele>
        <time>2010-01-01T02:18:15Z</time>
      </trkpt>
      <trkpt lat="48.98657" lon="-0.3381">
        <ele>121</ele>
        <time>2010-01-01T02:18:22Z</time>
      </trkpt>
      <trkpt lat="48.9866" lon="-0.33796">
        <ele>121</ele>
        <time>2010-01-01T02:18:25Z</time>
      </trkpt>
      <trkpt lat="48.98638" lon="-0.33758">
        <ele>120</ele>
        <time>2010-01-01T02:18:34Z</time>
      </trkpt>
      <trkpt lat="48.98602" lon="-0.33713">
        <ele>123</ele>
        <time>2010-01-01T02:18:46Z</time>
      </trkpt>
      <trkpt lat="48.98603" lon="-0.33687">
        <ele>124</ele>
        <time>2010-01-01T02:18:50Z</time>
      </trkpt>
      <trkpt lat="48.98602" lon="-0.33639">
        <ele>127</ele>
        <time>2010-01-01T02:18:59Z</time>
      </trkpt>
      <trkpt lat="48.98602" lon="-0.33612">
        <ele>127</ele>
        <time>2010-01-01T02:19:04Z</time>
      </trkpt>
      <trkpt lat="48.98602" lon="-0.33567">
        <ele>128</ele>
        <time>2010-01-01T02:19:12Z</time>
      </trkpt>
      <trkpt lat="48.98598" lon="-0.33506">
        <ele>128</ele>
        <time>2010-01-01T02:19:22Z</time>
      </trkpt>
      <trkpt lat="48.98593" lon="-0.33437">
        <ele>129</ele>
        <time>2010-01-01T02:19:34Z</time>
      </trkpt>
      <trkpt lat="48.98585" lon="-0.33379">
        <ele>127</ele>
        <time>2010-01-01T02:19:45Z</time>
      </trkpt>
      <trkpt lat="48.98577" lon="-0.33298">
        <ele>126</ele>
        <time>2010-01-01T02:19:59Z</time>
      </trkpt>
      <trkpt lat="48.98565" lon="-0.33226">
        <ele>123</ele>
        <time>2010-01-01T02:20:12Z</time>
      </trkpt>
      <trkpt lat="48.98563" lon="-0.33215">
        <ele>123</ele>
        <time>2010-01-01T02:20:14Z</time>
      </trkpt>
      <trkpt lat="48.98563" lon="-0.33155">
        <ele>124</ele>
        <time>2010-01-01T02:20:25Z</time>
      </trkpt>
      <trkpt lat="48.98565" lon="-0.33121">
        <ele>125</ele>
        <time>2010-01-01T02:20:31Z</time>
      </trkpt>
      <trkpt lat="48.98567" lon="-0.33083">
        <ele>127</ele>
        <time>2010-01-01T02:20:37Z</time>
      </trkpt>
      <trkpt lat="48.98561" lon="-0.33022">
        <ele>130</ele>
        <time>2010-01-01T02:20:48Z</time>
      </trkpt>
      <trkpt lat="48.98552" lon="-0.32969">
        <ele>133</ele>
        <time>2010-01-01T02:20:58Z</time>
      </trkpt>
      <trkpt lat="48.98557" lon="-0.32927">
        <ele>133</ele>
        <time>2010-01-01T02:21:05Z</time>
      </trkpt>
      <trkpt lat="48.98555" lon="-0.32873">
        <ele>135</ele>
        <time>2010-01-01T02:21:15Z</time>
      </trkpt>
      <trkpt lat="48.98553" lon="-0.32825">
        <ele>137</ele>
        <time>2010-01-01T02:21:23Z</time>
      </trkpt>
      <trkpt lat="48.98549" lon="-0.3277">
        <ele>139</ele>
        <time>2010-01-01T02:21:33Z</time>
      </trkpt>
      <trkpt lat="48.98549" lon="-0.32722">
        <ele>140</ele>
        <time>2010-01-01T02:21:41Z</time>
      </trkpt>
      <trkpt lat="48.9855" lon="-0.32646">
        <ele>142</ele>
        <time>2010-01-01T02:21:54Z</time>
      </trkpt>
      <trkpt lat="48.98551" lon="-0.3258">
        <ele>144</ele>
        <time>2010-01-01T02:22:06Z</time>
      </trkpt>
      <trkpt lat="48.98541" lon="-0.32522">
        <ele>145</ele>
        <time>2010-01-01T02:22:17Z</time>
      </trkpt>
      <trkpt lat="48.98536" lon="-0.32468">
        <ele>146</ele>
        <time>2010-01-01T02:22:26Z</time>
      </trkpt>
      <trkpt lat="48.98533" lon="-0.32404">
        <ele>145</ele>
        <time>2010-01-01T02:22:37Z</time>
      </trkpt>
      <trkpt lat="48.98536" lon="-0.32328">
        <ele>145</ele>
        <time>2010-01-01T02:22:51Z</time>
      </trkpt>
      <trkpt lat="48.98539" lon="-0.32167">
        <ele>138</ele>
        <time>2010-01-01T02:23:19Z</time>
      </trkpt>
      <trkpt lat="48.98543" lon="-0.32134">
        <ele>137</ele>
        <time>2010-01-01T02:23:25Z</time>
      </trkpt>
      <trkpt lat="48.98565" lon="-0.32093">
        <ele>137</ele>
        <time>2010-01-01T02:23:34Z</time>
      </trkpt>
      <trkpt lat="48.98612" lon="-0.32065">
        <ele>137</ele>
        <time>2010-01-01T02:23:48Z</time>
      </trkpt>
      <trkpt lat="48.98708" lon="-0.32052">
        <ele>119</ele>
        <time>2010-01-01T02:24:13Z</time>
      </trkpt>
      <trkpt lat="48.98738" lon="-0.3204">
        <ele>113</ele>
        <time>2010-01-01T02:24:21Z</time>
      </trkpt>
      <trkpt lat="48.98766" lon="-0.32014">
        <ele>113</ele>
        <time>2010-01-01T02:24:30Z</time>
      </trkpt>
      <trkpt lat="48.98814" lon="-0.31957">
        <ele>118</ele>
        <time>2010-01-01T02:24:46Z</time>
      </trkpt>
      <trkpt lat="48.98848" lon="-0.31893">
        <ele>123</ele>
        <time>2010-01-01T02:25:01Z</time>
      </trkpt>
      <trkpt lat="48.98853" lon="-0.31829">
        <ele>129</ele>
        <time>2010-01-01T02:25:12Z</time>
      </trkpt>
      <trkpt lat="48.9885" lon="-0.31803">
        <ele>131</ele>
        <time>2010-01-01T02:25:17Z</time>
      </trkpt>
      <trkpt lat="48.98852" lon="-0.31781">
        <ele>131</ele>
        <time>2010-01-01T02:25:21Z</time>
      </trkpt>
      <trkpt lat="48.98847" lon="-0.31757">
        <ele>132</ele>
        <time>2010-01-01T02:25:25Z</time>
      </trkpt>
      <trkpt lat="48.98846" lon="-0.31733">
        <ele>132</ele>
        <time>2010-01-01T02:25:29Z</time>
      </trkpt>
      <trkpt lat="48.98862" lon="-0.3171">
        <ele>134</ele>
        <time>2010-01-01T02:25:35Z</time>
      </trkpt>
      <trkpt lat="48.98881" lon="-0.31696">
        <ele>136</ele>
        <time>2010-01-01T02:25:41Z</time>
      </trkpt>
      <trkpt lat="48.98901" lon="-0.3168">
        <ele>137</ele>
        <time>2010-01-01T02:25:47Z</time>
      </trkpt>
      <trkpt lat="48.98918" lon="-0.31663">
        <ele>139</ele>
        <time>2010-01-01T02:25:52Z</time>
      </trkpt>
      <trkpt lat="48.98936" lon="-0.31642">
        <ele>140</ele>
        <time>2010-01-01T02:25:58Z</time>
      </trkpt>
      <trkpt lat="48.98956" lon="-0.31615">
        <ele>141</ele>
        <time>2010-01-01T02:26:05Z</time>
      </trkpt>
      <trkpt lat="48.98973" lon="-0.31589">
        <ele>142</ele>
        <time>2010-01-01T02:26:12Z</time>
      </trkpt>
      <trkpt lat="48.98996" lon="-0.31552">
        <ele>144</ele>
        <time>2010-01-01T02:26:21Z</time>
      </trkpt>
      <trkpt lat="48.98999" lon="-0.31548">
        <ele>144</ele>
        <time>2010-01-01T02:26:22Z</time>
      </trkpt>
      <trkpt lat="48.99034" lon="-0.31488">
        <ele>143</ele>
        <time>2010-01-01T02:26:36Z</time>
      </trkpt>
      <trkpt lat="48.99069" lon="-0.31427">
        <ele>142</ele>
        <time>2010-01-01T02:26:50Z</time>
      </trkpt>
      <trkpt lat="48.9911" lon="-0.31333">
        <ele>141</ele>
        <time>2010-01-01T02:27:10Z</time>
      </trkpt>
      <trkpt lat="48.99133" lon="-0.3128">
        <ele>142</ele>
        <time>2010-01-01T02:27:21Z</time>
      </trkpt>
      <trkpt lat="48.99133" lon="-0.31268">
        <ele>142</ele>
        <time>2010-01-01T02:27:23Z</time>
      </trkpt>
      <trkpt lat="48.99135" lon="-0.3126">
        <ele>142</ele>
        <time>2010-01-01T02:27:24Z</time>
      </trkpt>
      <trkpt lat="48.9913" lon="-0.3118">
        <ele>140</ele>
        <time>2010-01-01T02:27:38Z</time>
      </trkpt>
      <trkpt lat="48.99137" lon="-0.31178">
        <ele>139</ele>
        <time>2010-01-01T02:27:40Z</time>
      </trkpt>
      <trkpt lat="48.99135" lon="-0.31163">
        <ele>138</ele>
        <time>2010-01-01T02:27:43Z</time>
      </trkpt>
      <trkpt lat="48.99134" lon="-0.31152">
        <ele>138</ele>
        <time>2010-01-01T02:27:45Z</time>
      </trkpt>
      <trkpt lat="48.99154" lon="-0.31117">
        <ele>139</ele>
        <time>2010-01-01T02:27:53Z</time>
      </trkpt>
      <trkpt lat="48.99179" lon="-0.31085">
        <ele>140</ele>
        <time>2010-01-01T02:28:02Z</time>
      </trkpt>
      <trkpt lat="48.99186" lon="-0.31054">
        <ele>142</ele>
        <time>2010-01-01T02:28:08Z</time>
      </trkpt>
      <trkpt lat="48.99189" lon="-0.31005">
        <ele>144</ele>
        <time>2010-01-01T02:28:16Z</time>
      </trkpt>
      <trkpt lat="48.99197" lon="-0.3093">
        <ele>145</ele>
        <time>2010-01-01T02:28:30Z</time>
      </trkpt>
      <trkpt lat="48.99211" lon="-0.30837">
        <ele>149</ele>
        <time>2010-01-01T02:28:46Z</time>
      </trkpt>
      <trkpt lat="48.99233" lon="-0.30675">
        <ele>152</ele>
        <time>2010-01-01T02:29:15Z</time>
      </trkpt>
      <trkpt lat="48.99252" lon="-0.30652">
        <ele>149</ele>
        <time>2010-01-01T02:29:22Z</time>
      </trkpt>
      <trkpt lat="48.99271" lon="-0.30657">
        <ele>147</ele>
        <time>2010-01-01T02:29:27Z</time>
      </trkpt>
      <trkpt lat="48.99312" lon="-0.30674">
        <ele>148</ele>
        <time>2010-01-01T02:29:38Z</time>
      </trkpt>
      <trkpt lat="48.9934" lon="-0.30672">
        <ele>150</ele>
        <time>2010-01-01T02:29:45Z</time>
      </trkpt>
      <trkpt lat="48.99357" lon="-0.30649">
        <ele>154</ele>
        <time>2010-01-01T02:29:52Z</time>
      </trkpt>
      <trkpt lat="48.99368" lon="-0.3064">
        <ele>155</ele>
        <time>2010-01-01T02:29:55Z</time>
      </trkpt>
      <trkpt lat="48.99372" lon="-0.30646">
        <ele>156</ele>
        <time>2010-01-01T02:29:57Z</time>
      </trkpt>
      <trkpt lat="48.9938" lon="-0.30662">
        <ele>157</ele>
        <time>2010-01-01T02:30:00Z</time>
      </trkpt>
      <trkpt lat="48.99385" lon="-0.30682">
        <ele>158</ele>
        <time>2010-01-01T02:30:04Z</time>
      </trkpt>
      <trkpt lat="48.99395" lon="-0.30701">
        <ele>158</ele>
        <time>2010-01-01T02:30:08Z</time>
      </trkpt>
      <trkpt lat="48.99404" lon="-0.30717">
        <ele>158</ele>
        <time>2010-01-01T02:30:12Z</time>
      </trkpt>
      <trkpt lat="48.99411" lon="-0.30754">
        <ele>157</ele>
        <time>2010-01-01T02:30:18Z</time>
      </trkpt>
      <trkpt lat="48.99422" lon="-0.30787">
        <ele>156</ele>
        <time>2010-01-01T02:30:25Z</time>
      </trkpt>
      <trkpt lat="48.99436" lon="-0.30823">
        <ele>157</ele>
        <time>2010-01-01T02:30:32Z</time>
      </trkpt>
      <trkpt lat="48.99452" lon="-0.30859">
        <ele>158</ele>
        <time>2010-01-01T02:30:40Z</time>
      </trkpt>
      <trkpt lat="48.99466" lon="-0.30892">
        <ele>159</ele>
        <time>2010-01-01T02:30:47Z</time>
      </trkpt>
      <trkpt lat="48.99486" lon="-0.30939">
        <ele>161</ele>
        <time>2010-01-01T02:30:57Z</time>
      </trkpt>
      <trkpt lat="48.99505" lon="-0.31012">
        <ele>161</ele>
        <time>2010-01-01T02:31:10Z</time>
      </trkpt>
      <trkpt lat="48.99506" lon="-0.31059">
        <ele>163</ele>
        <time>2010-01-01T02:31:19Z</time>
      </trkpt>
      <trkpt lat="48.9946" lon="-0.31331">
        <ele>150</ele>
        <time>2010-01-01T02:32:08Z</time>
      </trkpt>
      <trkpt lat="48.99461" lon="-0.31354">
        <ele>149</ele>
        <time>2010-01-01T02:32:12Z</time>
      </trkpt>
      <trkpt lat="48.99574" lon="-0.31686">
        <ele>149</ele>
        <time>2010-01-01T02:33:17Z</time>
      </trkpt>
      <trkpt lat="48.99737" lon="-0.32198">
        <ele>118</ele>
        <time>2010-01-01T02:34:57Z</time>
      </trkpt>
      <trkpt lat="48.99746" lon="-0.32224">
        <ele>113</ele>
        <time>2010-01-01T02:35:02Z</time>
      </trkpt>
      <trkpt lat="48.99733" lon="-0.32249">
        <ele>110</ele>
        <time>2010-01-01T02:35:08Z</time>
      </trkpt>
      <trkpt lat="48.99731" lon="-0.32249">
        <ele>110</ele>
        <time>2010-01-01T02:35:08Z</time>
      </trkpt>
      <trkpt lat="48.99731" lon="-0.32249">
        <ele>110</ele>
        <time>2010-01-01T02:35:08Z</time>
      </trkpt>
      <trkpt lat="48.99731" lon="-0.32249">
        <ele>110</ele>
        <time>2010-01-01T02:35:08Z</time>
      </trkpt>
      <trkpt lat="48.99728" lon="-0.32251">
        <ele>110</ele>
        <time>2010-01-01T02:35:09Z</time>
      </trkpt>
      <trkpt lat="48.99739" lon="-0.32263">
        <ele>110</ele>
        <time>2010-01-01T02:35:13Z</time>
      </trkpt>
      <trkpt lat="48.99816" lon="-0.32202">
        <ele>111</ele>
        <time>2010-01-01T02:35:36Z</time>
      </trkpt>
      <trkpt lat="48.99906" lon="-0.32133">
        <ele>100</ele>
        <time>2010-01-01T02:36:03Z</time>
      </trkpt>
      <trkpt lat="48.99956" lon="-0.32055">
        <ele>100</ele>
        <time>2010-01-01T02:36:22Z</time>
      </trkpt>
      <trkpt lat="48.99986" lon="-0.31994">
        <ele>99</ele>
        <time>2010-01-01T02:36:35Z</time>
      </trkpt>
      <trkpt lat="49.00008" lon="-0.3195">
        <ele>100</ele>
        <time>2010-01-01T02:36:45Z</time>
      </trkpt>
      <trkpt lat="48.9999" lon="-0.31924">
        <ele>107</ele>
        <time>2010-01-01T02:36:52Z</time>
      </trkpt>
      <trkpt lat="48.99956" lon="-0.31916">
        <ele>113</ele>
        <time>2010-01-01T02:37:01Z</time>
      </trkpt>
      <trkpt lat="48.99929" lon="-0.31866">
        <ele>123</ele>
        <time>2010-01-01T02:37:12Z</time>
      </trkpt>
      <trkpt lat="48.99883" lon="-0.31784">
        <ele>130</ele>
        <time>2010-01-01T02:37:31Z</time>
      </trkpt>
      <trkpt lat="48.99877" lon="-0.31702">
        <ele>136</ele>
        <time>2010-01-01T02:37:45Z</time>
      </trkpt>
      <trkpt lat="48.99787" lon="-0.31489">
        <ele>151</ele>
        <time>2010-01-01T02:38:30Z</time>
      </trkpt>
      <trkpt lat="48.99768" lon="-0.31421">
        <ele>151</ele>
        <time>2010-01-01T02:38:43Z</time>
      </trkpt>
      <trkpt lat="48.99758" lon="-0.31374">
        <ele>152</ele>
        <time>2010-01-01T02:38:51Z</time>
      </trkpt>
      <trkpt lat="48.9974" lon="-0.31327">
        <ele>152</ele>
        <time>2010-01-01T02:39:01Z</time>
      </trkpt>
      <trkpt lat="48.99726" lon="-0.31282">
        <ele>154</ele>
        <time>2010-01-01T02:39:10Z</time>
      </trkpt>
      <trkpt lat="48.9971" lon="-0.31244">
        <ele>157</ele>
        <time>2010-01-01T02:39:17Z</time>
      </trkpt>
      <trkpt lat="48.99703" lon="-0.31217">
        <ele>158</ele>
        <time>2010-01-01T02:39:22Z</time>
      </trkpt>
      <trkpt lat="48.9969" lon="-0.3117">
        <ele>158</ele>
        <time>2010-01-01T02:39:31Z</time>
      </trkpt>
      <trkpt lat="48.9968" lon="-0.31138">
        <ele>158</ele>
        <time>2010-01-01T02:39:38Z</time>
      </trkpt>
      <trkpt lat="48.99659" lon="-0.31098">
        <ele>157</ele>
        <time>2010-01-01T02:39:47Z</time>
      </trkpt>
      <trkpt lat="48.99674" lon="-0.31077">
        <ele>155</ele>
        <time>2010-01-01T02:39:52Z</time>
      </trkpt>
      <trkpt lat="48.99698" lon="-0.31041">
        <ele>154</ele>
        <time>2010-01-01T02:40:01Z</time>
      </trkpt>
      <trkpt lat="48.99719" lon="-0.31013">
        <ele>156</ele>
        <time>2010-01-01T02:40:09Z</time>
      </trkpt>
      <trkpt lat="48.99749" lon="-0.30974">
        <ele>158</ele>
        <time>2010-01-01T02:40:19Z</time>
      </trkpt>
      <trkpt lat="48.99783" lon="-0.30935">
        <ele>159</ele>
        <time>2010-01-01T02:40:31Z</time>
      </trkpt>
      <trkpt lat="48.99817" lon="-0.30899">
        <ele>161</ele>
        <time>2010-01-01T02:40:42Z</time>
      </trkpt>
      <trkpt lat="48.99829" lon="-0.30884">
        <ele>161</ele>
        <time>2010-01-01T02:40:46Z</time>
      </trkpt>
      <trkpt lat="48.99862" lon="-0.30838">
        <ele>162</ele>
        <time>2010-01-01T02:40:57Z</time>
      </trkpt>
      <trkpt lat="48.99901" lon="-0.30784">
        <ele>161</ele>
        <time>2010-01-01T02:41:12Z</time>
      </trkpt>
      <trkpt lat="48.99908" lon="-0.30775">
        <ele>160</ele>
        <time>2010-01-01T02:41:14Z</time>
      </trkpt>
      <trkpt lat="48.99919" lon="-0.30767">
        <ele>159</ele>
        <time>2010-01-01T02:41:17Z</time>
      </trkpt>
      <trkpt lat="48.9997" lon="-0.30752">
        <ele>159</ele>
        <time>2010-01-01T02:41:31Z</time>
      </trkpt>
      <trkpt lat="49.00042" lon="-0.30715">
        <ele>155</ele>
        <time>2010-01-01T02:41:51Z</time>
      </trkpt>
      <trkpt lat="49.00113" lon="-0.30677">
        <ele>147</ele>
        <time>2010-01-01T02:42:12Z</time>
      </trkpt>
      <trkpt lat="49.00144" lon="-0.30653">
        <ele>143</ele>
        <time>2010-01-01T02:42:21Z</time>
      </trkpt>
      <trkpt lat="49.0013" lon="-0.30598">
        <ele>144</ele>
        <time>2010-01-01T02:42:31Z</time>
      </trkpt>
      <trkpt lat="49.00136" lon="-0.3059">
        <ele>143</ele>
        <time>2010-01-01T02:42:33Z</time>
      </trkpt>
      <trkpt lat="49.00138" lon="-0.30587">
        <ele>143</ele>
        <time>2010-01-01T02:42:34Z</time>
      </trkpt>
      <trkpt lat="49.00173" lon="-0.30582">
        <ele>141</ele>
        <time>2010-01-01T02:42:44Z</time>
      </trkpt>
      <trkpt lat="49.00275" lon="-0.30557">
        <ele>147</ele>
        <time>2010-01-01T02:43:11Z</time>
      </trkpt>
      <trkpt lat="49.00348" lon="-0.3051">
        <ele>147</ele>
        <time>2010-01-01T02:43:32Z</time>
      </trkpt>
      <trkpt lat="49.00382" lon="-0.30488">
        <ele>145</ele>
        <time>2010-01-01T02:43:42Z</time>
      </trkpt>
      <trkpt lat="49.00416" lon="-0.30446">
        <ele>144</ele>
        <time>2010-01-01T02:43:54Z</time>
      </trkpt>
      <trkpt lat="49.00419" lon="-0.3044">
        <ele>144</ele>
        <time>2010-01-01T02:43:55Z</time>
      </trkpt>
      <trkpt lat="49.00422" lon="-0.30434">
        <ele>144</ele>
        <time>2010-01-01T02:43:57Z</time>
      </trkpt>
      <trkpt lat="49.00431" lon="-0.30415">
        <ele>145</ele>
        <time>2010-01-01T02:44:01Z</time>
      </trkpt>
      <trkpt lat="49.00433" lon="-0.30389">
        <ele>145</ele>
        <time>2010-01-01T02:44:05Z</time>
      </trkpt>
      <trkpt lat="49.00427" lon="-0.30372">
        <ele>145</ele>
        <time>2010-01-01T02:44:09Z</time>
      </trkpt>
      <trkpt lat="49.00427" lon="-0.30366">
        <ele>145</ele>
        <time>2010-01-01T02:44:10Z</time>
      </trkpt>
      <trkpt lat="49.00415" lon="-0.30295">
        <ele>148</ele>
        <time>2010-01-01T02:44:22Z</time>
      </trkpt>
      <trkpt lat="49.00409" lon="-0.30233">
        <ele>149</ele>
        <time>2010-01-01T02:44:34Z</time>
      </trkpt>
      <trkpt lat="49.00399" lon="-0.30154">
        <ele>151</ele>
        <time>2010-01-01T02:44:48Z</time>
      </trkpt>
      <trkpt lat="49.00396" lon="-0.30115">
        <ele>151</ele>
        <time>2010-01-01T02:44:54Z</time>
      </trkpt>
      <trkpt lat="49.004" lon="-0.30108">
        <ele>151</ele>
        <time>2010-01-01T02:44:56Z</time>
      </trkpt>
      <trkpt lat="49.00415" lon="-0.30106">
        <ele>151</ele>
        <time>2010-01-01T02:45:00Z</time>
      </trkpt>
      <trkpt lat="49.00452" lon="-0.30111">
        <ele>149</ele>
        <time>2010-01-01T02:45:10Z</time>
      </trkpt>
      <trkpt lat="49.00488" lon="-0.30136">
        <ele>146</ele>
        <time>2010-01-01T02:45:20Z</time>
      </trkpt>
      <trkpt lat="49.00512" lon="-0.30143">
        <ele>145</ele>
        <time>2010-01-01T02:45:27Z</time>
      </trkpt>
      <trkpt lat="49.00537" lon="-0.30139">
        <ele>144</ele>
        <time>2010-01-01T02:45:34Z</time>
      </trkpt>
      <trkpt lat="49.00565" lon="-0.30134">
        <ele>142</ele>
        <time>2010-01-01T02:45:41Z</time>
      </trkpt>
      <trkpt lat="49.00586" lon="-0.30142">
        <ele>142</ele>
        <time>2010-01-01T02:45:47Z</time>
      </trkpt>
      <trkpt lat="49.00599" lon="-0.30136">
        <ele>142</ele>
        <time>2010-01-01T02:45:51Z</time>
      </trkpt>
      <trkpt lat="49.00631" lon="-0.30098">
        <ele>143</ele>
        <time>2010-01-01T02:46:02Z</time>
      </trkpt>
      <trkpt lat="49.00649" lon="-0.30075">
        <ele>143</ele>
        <time>2010-01-01T02:46:08Z</time>
      </trkpt>
      <trkpt lat="49.00657" lon="-0.30064">
        <ele>143</ele>
        <time>2010-01-01T02:46:11Z</time>
      </trkpt>
      <trkpt lat="49.00701" lon="-0.30088">
        <ele>142</ele>
        <time>2010-01-01T02:46:23Z</time>
      </trkpt>
      <trkpt lat="49.0074" lon="-0.30082">
        <ele>138</ele>
        <time>2010-01-01T02:46:34Z</time>
      </trkpt>
      <trkpt lat="49.00779" lon="-0.30071">
        <ele>135</ele>
        <time>2010-01-01T02:46:44Z</time>
      </trkpt>
      <trkpt lat="49.00804" lon="-0.30055">
        <ele>131</ele>
        <time>2010-01-01T02:46:51Z</time>
      </trkpt>
      <trkpt lat="49.00812" lon="-0.30051">
        <ele>130</ele>
        <time>2010-01-01T02:46:54Z</time>
      </trkpt>
      <trkpt lat="49.00835" lon="-0.30053">
        <ele>128</ele>
        <time>2010-01-01T02:47:00Z</time>
      </trkpt>
      <trkpt lat="49.00906" lon="-0.30101">
        <ele>125</ele>
        <time>2010-01-01T02:47:20Z</time>
      </trkpt>
      <trkpt lat="49.0093" lon="-0.30119">
        <ele>121</ele>
        <time>2010-01-01T02:47:28Z</time>
      </trkpt>
      <trkpt lat="49.00984" lon="-0.30136">
        <ele>119</ele>
        <time>2010-01-01T02:47:42Z</time>
      </trkpt>
      <trkpt lat="49.00993" lon="-0.3013">
        <ele>119</ele>
        <time>2010-01-01T02:47:45Z</time>
      </trkpt>
      <trkpt lat="49.01053" lon="-0.30119">
        <ele>119</ele>
        <time>2010-01-01T02:48:01Z</time>
      </trkpt>
      <trkpt lat="49.01098" lon="-0.30099">
        <ele>121</ele>
        <time>2010-01-01T02:48:14Z</time>
      </trkpt>
      <trkpt lat="49.01147" lon="-0.30076">
        <ele>122</ele>
        <time>2010-01-01T02:48:27Z</time>
      </trkpt>
      <trkpt lat="49.01196" lon="-0.30062">
        <ele>121</ele>
        <time>2010-01-01T02:48:41Z</time>
      </trkpt>
      <trkpt lat="49.01249" lon="-0.30068">
        <ele>124</ele>
        <time>2010-01-01T02:48:55Z</time>
      </trkpt>
      <trkpt lat="49.01268" lon="-0.30091">
        <ele>125</ele>
        <time>2010-01-01T02:49:01Z</time>
      </trkpt>
      <trkpt lat="49.01314" lon="-0.30145">
        <ele>123</ele>
        <time>2010-01-01T02:49:17Z</time>
      </trkpt>
      <trkpt lat="49.01321" lon="-0.30152">
        <ele>123</ele>
        <time>2010-01-01T02:49:19Z</time>
      </trkpt>
      <trkpt lat="49.0136" lon="-0.30193">
        <ele>123</ele>
        <time>2010-01-01T02:49:32Z</time>
      </trkpt>
      <trkpt lat="49.01403" lon="-0.30219">
        <ele>123</ele>
        <time>2010-01-01T02:49:44Z</time>
      </trkpt>
      <trkpt lat="49.01432" lon="-0.30219">
        <ele>124</ele>
        <time>2010-01-01T02:49:51Z</time>
      </trkpt>
      <trkpt lat="49.01473" lon="-0.30221">
        <ele>125</ele>
        <time>2010-01-01T02:50:03Z</time>
      </trkpt>
      <trkpt lat="49.01507" lon="-0.30233">
        <ele>124</ele>
        <time>2010-01-01T02:50:12Z</time>
      </trkpt>
      <trkpt lat="49.01528" lon="-0.30272">
        <ele>120</ele>
        <time>2010-01-01T02:50:21Z</time>
      </trkpt>
      <trkpt lat="49.01526" lon="-0.30281">
        <ele>119</ele>
        <time>2010-01-01T02:50:22Z</time>
      </trkpt>
      <trkpt lat="49.01545" lon="-0.30298">
        <ele>118</ele>
        <time>2010-01-01T02:50:28Z</time>
      </trkpt>
      <trkpt lat="49.01567" lon="-0.3031">
        <ele>117</ele>
        <time>2010-01-01T02:50:34Z</time>
      </trkpt>
      <trkpt lat="49.01601" lon="-0.30329">
        <ele>115</ele>
        <time>2010-01-01T02:50:44Z</time>
      </trkpt>
      <trkpt lat="49.01651" lon="-0.30357">
        <ele>114</ele>
        <time>2010-01-01T02:50:58Z</time>
      </trkpt>
      <trkpt lat="49.01665" lon="-0.30343">
        <ele>116</ele>
        <time>2010-01-01T02:51:02Z</time>
      </trkpt>
      <trkpt lat="49.0169" lon="-0.30333">
        <ele>117</ele>
        <time>2010-01-01T02:51:10Z</time>
      </trkpt>
      <trkpt lat="49.01753" lon="-0.30355">
        <ele>116</ele>
        <time>2010-01-01T02:51:27Z</time>
      </trkpt>
      <trkpt lat="49.01795" lon="-0.30351">
        <ele>117</ele>
        <time>2010-01-01T02:51:38Z</time>
      </trkpt>
      <trkpt lat="49.01811" lon="-0.30341">
        <ele>119</ele>
        <time>2010-01-01T02:51:43Z</time>
      </trkpt>
      <trkpt lat="49.01825" lon="-0.3032">
        <ele>121</ele>
        <time>2010-01-01T02:51:48Z</time>
      </trkpt>
      <trkpt lat="49.01834" lon="-0.30295">
        <ele>124</ele>
        <time>2010-01-01T02:51:53Z</time>
      </trkpt>
      <trkpt lat="49.0185" lon="-0.3025">
        <ele>125</ele>
        <time>2010-01-01T02:52:02Z</time>
      </trkpt>
      <trkpt lat="49.01879" lon="-0.30198">
        <ele>127</ele>
        <time>2010-01-01T02:52:14Z</time>
      </trkpt>
      <trkpt lat="49.01909" lon="-0.30148">
        <ele>126</ele>
        <time>2010-01-01T02:52:26Z</time>
      </trkpt>
      <trkpt lat="49.01951" lon="-0.30122">
        <ele>125</ele>
        <time>2010-01-01T02:52:38Z</time>
      </trkpt>
      <trkpt lat="49.01944" lon="-0.30067">
        <ele>125</ele>
        <time>2010-01-01T02:52:47Z</time>
      </trkpt>
      <trkpt lat="49.01943" lon="-0.30021">
        <ele>125</ele>
        <time>2010-01-01T02:52:56Z</time>
      </trkpt>
      <trkpt lat="49.01941" lon="-0.29961">
        <ele>126</ele>
        <time>2010-01-01T02:53:06Z</time>
      </trkpt>
      <trkpt lat="49.01938" lon="-0.2991">
        <ele>129</ele>
        <time>2010-01-01T02:53:15Z</time>
      </trkpt>
      <trkpt lat="49.01934" lon="-0.29866">
        <ele>129</ele>
        <time>2010-01-01T02:53:23Z</time>
      </trkpt>
      <trkpt lat="49.01929" lon="-0.29815">
        <ele>129</ele>
        <time>2010-01-01T02:53:32Z</time>
      </trkpt>
      <trkpt lat="49.01925" lon="-0.29773">
        <ele>130</ele>
        <time>2010-01-01T02:53:39Z</time>
      </trkpt>
      <trkpt lat="49.01921" lon="-0.29723">
        <ele>131</ele>
        <time>2010-01-01T02:53:48Z</time>
      </trkpt>
      <trkpt lat="49.01919" lon="-0.29653">
        <ele>132</ele>
        <time>2010-01-01T02:54:00Z</time>
      </trkpt>
      <trkpt lat="49.01913" lon="-0.29594">
        <ele>131</ele>
        <time>2010-01-01T02:54:11Z</time>
      </trkpt>
      <trkpt lat="49.01896" lon="-0.29524">
        <ele>131</ele>
        <time>2010-01-01T02:54:24Z</time>
      </trkpt>
      <trkpt lat="49.01875" lon="-0.2945">
        <ele>131</ele>
        <time>2010-01-01T02:54:38Z</time>
      </trkpt>
      <trkpt lat="49.01859" lon="-0.29393">
        <ele>131</ele>
        <time>2010-01-01T02:54:49Z</time>
      </trkpt>
      <trkpt lat="49.0185" lon="-0.29344">
        <ele>132</ele>
        <time>2010-01-01T02:54:58Z</time>
      </trkpt>
      <trkpt lat="49.01844" lon="-0.29277">
        <ele>132</ele>
        <time>2010-01-01T02:55:10Z</time>
      </trkpt>
      <trkpt lat="49.01841" lon="-0.29239">
        <ele>132</ele>
        <time>2010-01-01T02:55:16Z</time>
      </trkpt>
      <trkpt lat="49.01837" lon="-0.29203">
        <ele>132</ele>
        <time>2010-01-01T02:55:23Z</time>
      </trkpt>
      <trkpt lat="49.01835" lon="-0.29201">
        <ele>132</ele>
        <time>2010-01-01T02:55:23Z</time>
      </trkpt>
      <trkpt lat="49.01805" lon="-0.29197">
        <ele>132</ele>
        <time>2010-01-01T02:55:31Z</time>
      </trkpt>
      <trkpt lat="49.01761" lon="-0.29195">
        <ele>133</ele>
        <time>2010-01-01T02:55:43Z</time>
      </trkpt>
      <trkpt lat="49.0173" lon="-0.29198">
        <ele>135</ele>
        <time>2010-01-01T02:55:51Z</time>
      </trkpt>
      <trkpt lat="49.017" lon="-0.292">
        <ele>137</ele>
        <time>2010-01-01T02:55:59Z</time>
      </trkpt>
      <trkpt lat="49.01693" lon="-0.29183">
        <ele>136</ele>
        <time>2010-01-01T02:56:03Z</time>
      </trkpt>
      <trkpt lat="49.01692" lon="-0.29139">
        <ele>135</ele>
        <time>2010-01-01T02:56:11Z</time>
      </trkpt>
      <trkpt lat="49.01694" lon="-0.29061">
        <ele>134</ele>
        <time>2010-01-01T02:56:24Z</time>
      </trkpt>
      <trkpt lat="49.01694" lon="-0.29044">
        <ele>134</ele>
        <time>2010-01-01T02:56:27Z</time>
      </trkpt>
      <trkpt lat="49.01695" lon="-0.28956">
        <ele>133</ele>
        <time>2010-01-01T02:56:43Z</time>
      </trkpt>
      <trkpt lat="49.01694" lon="-0.28843">
        <ele>132</ele>
        <time>2010-01-01T02:57:03Z</time>
      </trkpt>
      <trkpt lat="49.01691" lon="-0.28824">
        <ele>132</ele>
        <time>2010-01-01T02:57:06Z</time>
      </trkpt>
      <trkpt lat="49.0167" lon="-0.28765">
        <ele>131</ele>
        <time>2010-01-01T02:57:18Z</time>
      </trkpt>
      <trkpt lat="49.01667" lon="-0.28758">
        <ele>131</ele>
        <time>2010-01-01T02:57:19Z</time>
      </trkpt>
      <trkpt lat="49.0166" lon="-0.28739">
        <ele>132</ele>
        <time>2010-01-01T02:57:23Z</time>
      </trkpt>
      <trkpt lat="49.01669" lon="-0.28736">
        <ele>132</ele>
        <time>2010-01-01T02:57:26Z</time>
      </trkpt>
      <trkpt lat="49.01708" lon="-0.28731">
        <ele>131</ele>
        <time>2010-01-01T02:57:36Z</time>
      </trkpt>
      <trkpt lat="49.01756" lon="-0.28727">
        <ele>131</ele>
        <time>2010-01-01T02:57:49Z</time>
      </trkpt>
      <trkpt lat="49.0182" lon="-0.28718">
        <ele>130</ele>
        <time>2010-01-01T02:58:06Z</time>
      </trkpt>
      <trkpt lat="49.01904" lon="-0.28706">
        <ele>129</ele>
        <time>2010-01-01T02:58:28Z</time>
      </trkpt>
      <trkpt lat="49.01971" lon="-0.28702">
        <ele>128</ele>
        <time>2010-01-01T02:58:46Z</time>
      </trkpt>
      <trkpt lat="49.01983" lon="-0.28707">
        <ele>128</ele>
        <time>2010-01-01T02:58:50Z</time>
      </trkpt>
      <trkpt lat="49.02018" lon="-0.28706">
        <ele>127</ele>
        <time>2010-01-01T02:58:59Z</time>
      </trkpt>
      <trkpt lat="49.02029" lon="-0.28701">
        <ele>127</ele>
        <time>2010-01-01T02:59:02Z</time>
      </trkpt>
      <trkpt lat="49.02045" lon="-0.28689">
        <ele>127</ele>
        <time>2010-01-01T02:59:07Z</time>
      </trkpt>
      <trkpt lat="49.02066" lon="-0.28668">
        <ele>126</ele>
        <time>2010-01-01T02:59:14Z</time>
      </trkpt>
      <trkpt lat="49.02074" lon="-0.28661">
        <ele>126</ele>
        <time>2010-01-01T02:59:16Z</time>
      </trkpt>
      <trkpt lat="49.02117" lon="-0.28622">
        <ele>124</ele>
        <time>2010-01-01T02:59:29Z</time>
      </trkpt>
      <trkpt lat="49.02153" lon="-0.28599">
        <ele>123</ele>
        <time>2010-01-01T02:59:40Z</time>
      </trkpt>
      <trkpt lat="49.02212" lon="-0.2858">
        <ele>122</ele>
        <time>2010-01-01T02:59:56Z</time>
      </trkpt>
      <trkpt lat="49.02281" lon="-0.28554">
        <ele>119</ele>
        <time>2010-01-01T03:00:15Z</time>
      </trkpt>
      <trkpt lat="49.02322" lon="-0.2853">
        <ele>117</ele>
        <time>2010-01-01T03:00:27Z</time>
      </trkpt>
      <trkpt lat="49.02326" lon="-0.28527">
        <ele>117</ele>
        <time>2010-01-01T03:00:28Z</time>
      </trkpt>
      <trkpt lat="49.02366" lon="-0.28505">
        <ele>115</ele>
        <time>2010-01-01T03:00:39Z</time>
      </trkpt>
      <trkpt lat="49.02414" lon="-0.28478">
        <ele>112</ele>
        <time>2010-01-01T03:00:53Z</time>
      </trkpt>
      <trkpt lat="49.02467" lon="-0.28431">
        <ele>111</ele>
        <time>2010-01-01T03:01:09Z</time>
      </trkpt>
      <trkpt lat="49.02525" lon="-0.28372">
        <ele>111</ele>
        <time>2010-01-01T03:01:28Z</time>
      </trkpt>
      <trkpt lat="49.02542" lon="-0.2835">
        <ele>111</ele>
        <time>2010-01-01T03:01:34Z</time>
      </trkpt>
      <trkpt lat="49.02557" lon="-0.28355">
        <ele>111</ele>
        <time>2010-01-01T03:01:38Z</time>
      </trkpt>
      <trkpt lat="49.02557" lon="-0.28354">
        <ele>111</ele>
        <time>2010-01-01T03:01:38Z</time>
      </trkpt>
      <trkpt lat="49.0256" lon="-0.28352">
        <ele>111</ele>
        <time>2010-01-01T03:01:39Z</time>
      </trkpt>
      <trkpt lat="49.0256" lon="-0.28352">
        <ele>111</ele>
        <time>2010-01-01T03:01:39Z</time>
      </trkpt>
      <trkpt lat="49.0256" lon="-0.28352">
        <ele>111</ele>
        <time>2010-01-01T03:01:39Z</time>
      </trkpt>
      <trkpt lat="49.02563" lon="-0.28349">
        <ele>111</ele>
        <time>2010-01-01T03:01:40Z</time>
      </trkpt>
      <trkpt lat="49.02563" lon="-0.28349">
        <ele>111</ele>
        <time>2010-01-01T03:01:40Z</time>
      </trkpt>
      <trkpt lat="49.02564" lon="-0.28348">
        <ele>111</ele>
        <time>2010-01-01T03:01:40Z</time>
      </trkpt>
      <trkpt lat="49.02563" lon="-0.28348">
        <ele>111</ele>
        <time>2010-01-01T03:01:40Z</time>
      </trkpt>
      <trkpt lat="49.02563" lon="-0.28347">
        <ele>111</ele>
        <time>2010-01-01T03:01:40Z</time>
      </trkpt>
      <trkpt lat="49.02564" lon="-0.28347">
        <ele>111</ele>
        <time>2010-01-01T03:01:40Z</time>
      </trkpt>
      <trkpt lat="49.02564" lon="-0.28345">
        <ele>111</ele>
        <time>2010-01-01T03:01:41Z</time>
      </trkpt>
      <trkpt lat="49.02564" lon="-0.28345">
        <ele>111</ele>
        <time>2010-01-01T03:01:41Z</time>
      </trkpt>
      <trkpt lat="49.02565" lon="-0.28345">
        <ele>111</ele>
        <time>2010-01-01T03:01:41Z</time>
      </trkpt>
      <trkpt lat="49.02565" lon="-0.28346">
        <ele>111</ele>
        <time>2010-01-01T03:01:41Z</time>
      </trkpt>
      <trkpt lat="49.02584" lon="-0.28372">
        <ele>110</ele>
        <time>2010-01-01T03:01:48Z</time>
      </trkpt>
      <trkpt lat="49.0263" lon="-0.28388">
        <ele>109</ele>
        <time>2010-01-01T03:02:00Z</time>
      </trkpt>
      <trkpt lat="49.02674" lon="-0.28414">
        <ele>108</ele>
        <time>2010-01-01T03:02:13Z</time>
      </trkpt>
      <trkpt lat="49.02704" lon="-0.28433">
        <ele>107</ele>
        <time>2010-01-01T03:02:22Z</time>
      </trkpt>
      <trkpt lat="49.02749" lon="-0.28463">
        <ele>107</ele>
        <time>2010-01-01T03:02:35Z</time>
      </trkpt>
      <trkpt lat="49.02793" lon="-0.28488">
        <ele>108</ele>
        <time>2010-01-01T03:02:47Z</time>
      </trkpt>
      <trkpt lat="49.02824" lon="-0.28508">
        <ele>107</ele>
        <time>2010-01-01T03:02:56Z</time>
      </trkpt>
      <trkpt lat="49.02856" lon="-0.28528">
        <ele>107</ele>
        <time>2010-01-01T03:03:05Z</time>
      </trkpt>
      <trkpt lat="49.02888" lon="-0.28548">
        <ele>107</ele>
        <time>2010-01-01T03:03:15Z</time>
      </trkpt>
      <trkpt lat="49.0292" lon="-0.28569">
        <ele>108</ele>
        <time>2010-01-01T03:03:24Z</time>
      </trkpt>
      <trkpt lat="49.02949" lon="-0.28586">
        <ele>109</ele>
        <time>2010-01-01T03:03:32Z</time>
      </trkpt>
      <trkpt lat="49.02983" lon="-0.28609">
        <ele>109</ele>
        <time>2010-01-01T03:03:42Z</time>
      </trkpt>
      <trkpt lat="49.03009" lon="-0.28624">
        <ele>109</ele>
        <time>2010-01-01T03:03:50Z</time>
      </trkpt>
      <trkpt lat="49.03042" lon="-0.28645">
        <ele>110</ele>
        <time>2010-01-01T03:03:59Z</time>
      </trkpt>
      <trkpt lat="49.0307" lon="-0.28665">
        <ele>111</ele>
        <time>2010-01-01T03:04:07Z</time>
      </trkpt>
      <trkpt lat="49.03122" lon="-0.28698">
        <ele>112</ele>
        <time>2010-01-01T03:04:22Z</time>
      </trkpt>
      <trkpt lat="49.03166" lon="-0.28725">
        <ele>112</ele>
        <time>2010-01-01T03:04:35Z</time>
      </trkpt>
      <trkpt lat="49.0321" lon="-0.28754">
        <ele>114</ele>
        <time>2010-01-01T03:04:48Z</time>
      </trkpt>
      <trkpt lat="49.03258" lon="-0.28785">
        <ele>117</ele>
        <time>2010-01-01T03:05:02Z</time>
      </trkpt>
      <trkpt lat="49.03302" lon="-0.28813">
        <ele>119</ele>
        <time>2010-01-01T03:05:14Z</time>
      </trkpt>
      <trkpt lat="49.03345" lon="-0.2884">
        <ele>119</ele>
        <time>2010-01-01T03:05:27Z</time>
      </trkpt>
      <trkpt lat="49.03378" lon="-0.2886">
        <ele>118</ele>
        <time>2010-01-01T03:05:36Z</time>
      </trkpt>
      <trkpt lat="49.03414" lon="-0.28883">
        <ele>117</ele>
        <time>2010-01-01T03:05:47Z</time>
      </trkpt>
      <trkpt lat="49.03458" lon="-0.28911">
        <ele>119</ele>
        <time>2010-01-01T03:05:59Z</time>
      </trkpt>
      <trkpt lat="49.03501" lon="-0.2894">
        <ele>119</ele>
        <time>2010-01-01T03:06:12Z</time>
      </trkpt>
      <trkpt lat="49.03533" lon="-0.2896">
        <ele>119</ele>
        <time>2010-01-01T03:06:21Z</time>
      </trkpt>
      <trkpt lat="49.03559" lon="-0.28971">
        <ele>119</ele>
        <time>2010-01-01T03:06:29Z</time>
      </trkpt>
      <trkpt lat="49.03601" lon="-0.28997">
        <ele>120</ele>
        <time>2010-01-01T03:06:41Z</time>
      </trkpt>
      <trkpt lat="49.03638" lon="-0.29021">
        <ele>121</ele>
        <time>2010-01-01T03:06:51Z</time>
      </trkpt>
      <trkpt lat="49.03675" lon="-0.29045">
        <ele>122</ele>
        <time>2010-01-01T03:07:02Z</time>
      </trkpt>
      <trkpt lat="49.0373" lon="-0.2908">
        <ele>124</ele>
        <time>2010-01-01T03:07:18Z</time>
      </trkpt>
      <trkpt lat="49.03802" lon="-0.29138">
        <ele>125</ele>
        <time>2010-01-01T03:07:40Z</time>
      </trkpt>
      <trkpt lat="49.03834" lon="-0.29157">
        <ele>125</ele>
        <time>2010-01-01T03:07:49Z</time>
      </trkpt>
      <trkpt lat="49.03836" lon="-0.29161">
        <ele>125</ele>
        <time>2010-01-01T03:07:50Z</time>
      </trkpt>
      <trkpt lat="49.03836" lon="-0.29182">
        <ele>124</ele>
        <time>2010-01-01T03:07:53Z</time>
      </trkpt>
      <trkpt lat="49.03832" lon="-0.29184">
        <ele>125</ele>
        <time>2010-01-01T03:07:55Z</time>
      </trkpt>
      <trkpt lat="49.03812" lon="-0.2917">
        <ele>125</ele>
        <time>2010-01-01T03:08:00Z</time>
      </trkpt>
      <trkpt lat="49.03792" lon="-0.2916">
        <ele>125</ele>
        <time>2010-01-01T03:08:06Z</time>
      </trkpt>
      <trkpt lat="49.03768" lon="-0.29142">
        <ele>124</ele>
        <time>2010-01-01T03:08:13Z</time>
      </trkpt>
      <trkpt lat="49.03763" lon="-0.29128">
        <ele>124</ele>
        <time>2010-01-01T03:08:16Z</time>
      </trkpt>
      <trkpt lat="49.03777" lon="-0.2909">
        <ele>125</ele>
        <time>2010-01-01T03:08:24Z</time>
      </trkpt>
      <trkpt lat="49.03794" lon="-0.29045">
        <ele>127</ele>
        <time>2010-01-01T03:08:33Z</time>
      </trkpt>
      <trkpt lat="49.03811" lon="-0.28992">
        <ele>129</ele>
        <time>2010-01-01T03:08:43Z</time>
      </trkpt>
      <trkpt lat="49.03826" lon="-0.28927">
        <ele>131</ele>
        <time>2010-01-01T03:08:55Z</time>
      </trkpt>
      <trkpt lat="49.03848" lon="-0.28857">
        <ele>131</ele>
        <time>2010-01-01T03:09:09Z</time>
      </trkpt>
      <trkpt lat="49.03871" lon="-0.28793">
        <ele>130</ele>
        <time>2010-01-01T03:09:21Z</time>
      </trkpt>
      <trkpt lat="49.03898" lon="-0.28727">
        <ele>130</ele>
        <time>2010-01-01T03:09:35Z</time>
      </trkpt>
      <trkpt lat="49.03928" lon="-0.28672">
        <ele>131</ele>
        <time>2010-01-01T03:09:48Z</time>
      </trkpt>
      <trkpt lat="49.03961" lon="-0.28607">
        <ele>131</ele>
        <time>2010-01-01T03:10:02Z</time>
      </trkpt>
      <trkpt lat="49.03981" lon="-0.2854">
        <ele>130</ele>
        <time>2010-01-01T03:10:15Z</time>
      </trkpt>
      <trkpt lat="49.03984" lon="-0.28512">
        <ele>131</ele>
        <time>2010-01-01T03:10:20Z</time>
      </trkpt>
      <trkpt lat="49.03987" lon="-0.28402">
        <ele>124</ele>
        <time>2010-01-01T03:10:39Z</time>
      </trkpt>
      <trkpt lat="49.03987" lon="-0.28258">
        <ele>126</ele>
        <time>2010-01-01T03:11:04Z</time>
      </trkpt>
      <trkpt lat="49.0399" lon="-0.28224">
        <ele>125</ele>
        <time>2010-01-01T03:11:10Z</time>
      </trkpt>
      <trkpt lat="49.04009" lon="-0.28157">
        <ele>122</ele>
        <time>2010-01-01T03:11:23Z</time>
      </trkpt>
      <trkpt lat="49.04049" lon="-0.2807">
        <ele>125</ele>
        <time>2010-01-01T03:11:42Z</time>
      </trkpt>
      <trkpt lat="49.04075" lon="-0.28018">
        <ele>127</ele>
        <time>2010-01-01T03:11:53Z</time>
      </trkpt>
      <trkpt lat="49.041" lon="-0.27975">
        <ele>130</ele>
        <time>2010-01-01T03:12:03Z</time>
      </trkpt>
      <trkpt lat="49.04132" lon="-0.27914">
        <ele>130</ele>
        <time>2010-01-01T03:12:17Z</time>
      </trkpt>
      <trkpt lat="49.04172" lon="-0.27843">
        <ele>131</ele>
        <time>2010-01-01T03:12:33Z</time>
      </trkpt>
      <trkpt lat="49.04202" lon="-0.27776">
        <ele>126</ele>
        <time>2010-01-01T03:12:47Z</time>
      </trkpt>
      <trkpt lat="49.0423" lon="-0.27693">
        <ele>122</ele>
        <time>2010-01-01T03:13:04Z</time>
      </trkpt>
      <trkpt lat="49.04259" lon="-0.2758">
        <ele>122</ele>
        <time>2010-01-01T03:13:25Z</time>
      </trkpt>
      <trkpt lat="49.04286" lon="-0.27474">
        <ele>124</ele>
        <time>2010-01-01T03:13:45Z</time>
      </trkpt>
      <trkpt lat="49.0432" lon="-0.27344">
        <ele>116</ele>
        <time>2010-01-01T03:14:09Z</time>
      </trkpt>
      <trkpt lat="49.04352" lon="-0.27226">
        <ele>115</ele>
        <time>2010-01-01T03:14:32Z</time>
      </trkpt>
      <trkpt lat="49.04373" lon="-0.27116">
        <ele>114</ele>
        <time>2010-01-01T03:14:52Z</time>
      </trkpt>
      <trkpt lat="49.04397" lon="-0.26983">
        <ele>115</ele>
        <time>2010-01-01T03:15:16Z</time>
      </trkpt>
      <trkpt lat="49.04415" lon="-0.26838">
        <ele>115</ele>
        <time>2010-01-01T03:15:42Z</time>
      </trkpt>
      <trkpt lat="49.0442" lon="-0.2678">
        <ele>114</ele>
        <time>2010-01-01T03:15:52Z</time>
      </trkpt>
      <trkpt lat="49.04425" lon="-0.2676">
        <ele>113</ele>
        <time>2010-01-01T03:15:56Z</time>
      </trkpt>
      <trkpt lat="49.04439" lon="-0.26743">
        <ele>113</ele>
        <time>2010-01-01T03:16:01Z</time>
      </trkpt>
      <trkpt lat="49.04447" lon="-0.26701">
        <ele>113</ele>
        <time>2010-01-01T03:16:08Z</time>
      </trkpt>
      <trkpt lat="49.04538" lon="-0.26567">
        <ele>111</ele>
        <time>2010-01-01T03:16:42Z</time>
      </trkpt>
      <trkpt lat="49.04634" lon="-0.2648">
        <ele>108</ele>
        <time>2010-01-01T03:17:12Z</time>
      </trkpt>
      <trkpt lat="49.04666" lon="-0.26406">
        <ele>106</ele>
        <time>2010-01-01T03:17:27Z</time>
      </trkpt>
      <trkpt lat="49.04683" lon="-0.26336">
        <ele>104</ele>
        <time>2010-01-01T03:17:40Z</time>
      </trkpt>
      <trkpt lat="49.04689" lon="-0.26267">
        <ele>103</ele>
        <time>2010-01-01T03:17:52Z</time>
      </trkpt>
      <trkpt lat="49.04728" lon="-0.26076">
        <ele>97</ele>
        <time>2010-01-01T03:18:27Z</time>
      </trkpt>
      <trkpt lat="49.04768" lon="-0.25921">
        <ele>93</ele>
        <time>2010-01-01T03:18:57Z</time>
      </trkpt>
      <trkpt lat="49.04779" lon="-0.25859">
        <ele>91</ele>
        <time>2010-01-01T03:19:08Z</time>
      </trkpt>
      <trkpt lat="49.04796" lon="-0.25758">
        <ele>88</ele>
        <time>2010-01-01T03:19:26Z</time>
      </trkpt>
      <trkpt lat="49.04828" lon="-0.25573">
        <ele>84</ele>
        <time>2010-01-01T03:19:59Z</time>
      </trkpt>
      <trkpt lat="49.04856" lon="-0.25384">
        <ele>81</ele>
        <time>2010-01-01T03:20:33Z</time>
      </trkpt>
      <trkpt lat="49.04891" lon="-0.25075">
        <ele>77</ele>
        <time>2010-01-01T03:21:28Z</time>
      </trkpt>
      <trkpt lat="49.04913" lon="-0.24739">
        <ele>73</ele>
        <time>2010-01-01T03:22:27Z</time>
      </trkpt>
      <trkpt lat="49.04908" lon="-0.24433">
        <ele>67</ele>
        <time>2010-01-01T03:23:21Z</time>
      </trkpt>
      <trkpt lat="49.05036" lon="-0.24217">
        <ele>67</ele>
        <time>2010-01-01T03:24:12Z</time>
      </trkpt>
      <trkpt lat="49.05074" lon="-0.2415">
        <ele>67</ele>
        <time>2010-01-01T03:24:27Z</time>
      </trkpt>
      <trkpt lat="49.05123" lon="-0.2402">
        <ele>64</ele>
        <time>2010-01-01T03:24:54Z</time>
      </trkpt>
      <trkpt lat="49.053" lon="-0.23548">
        <ele>59</ele>
        <time>2010-01-01T03:26:29Z</time>
      </trkpt>
      <trkpt lat="49.05407" lon="-0.23352">
        <ele>60</ele>
        <time>2010-01-01T03:27:13Z</time>
      </trkpt>
      <trkpt lat="49.05456" lon="-0.23265">
        <ele>59</ele>
        <time>2010-01-01T03:27:33Z</time>
      </trkpt>
      <trkpt lat="49.05497" lon="-0.23164">
        <ele>57</ele>
        <time>2010-01-01T03:27:54Z</time>
      </trkpt>
      <trkpt lat="49.0564" lon="-0.22877">
        <ele>54</ele>
        <time>2010-01-01T03:28:57Z</time>
      </trkpt>
      <trkpt lat="49.05687" lon="-0.22739">
        <ele>52</ele>
        <time>2010-01-01T03:29:24Z</time>
      </trkpt>
      <trkpt lat="49.05746" lon="-0.22535">
        <ele>49</ele>
        <time>2010-01-01T03:30:03Z</time>
      </trkpt>
      <trkpt lat="49.05804" lon="-0.22293">
        <ele>48</ele>
        <time>2010-01-01T03:30:48Z</time>
      </trkpt>
      <trkpt lat="49.05822" lon="-0.22215">
        <ele>48</ele>
        <time>2010-01-01T03:31:03Z</time>
      </trkpt>
      <trkpt lat="49.05832" lon="-0.2224">
        <ele>49</ele>
        <time>2010-01-01T03:31:08Z</time>
      </trkpt>
      <trkpt lat="49.05849" lon="-0.22259">
        <ele>49</ele>
        <time>2010-01-01T03:31:13Z</time>
      </trkpt>
      <trkpt lat="49.05896" lon="-0.22061">
        <ele>46</ele>
        <time>2010-01-01T03:31:50Z</time>
      </trkpt>
      <trkpt lat="49.05922" lon="-0.22004">
        <ele>47</ele>
        <time>2010-01-01T03:32:02Z</time>
      </trkpt>
      <trkpt lat="49.05938" lon="-0.21943">
        <ele>46</ele>
        <time>2010-01-01T03:32:14Z</time>
      </trkpt>
      <trkpt lat="49.05968" lon="-0.2188">
        <ele>45</ele>
        <time>2010-01-01T03:32:28Z</time>
      </trkpt>
      <trkpt lat="49.05993" lon="-0.21853">
        <ele>45</ele>
        <time>2010-01-01T03:32:36Z</time>
      </trkpt>
    </trkseg>
  </trk>
</gpx>